Wetterdaten: Freitag, 12.05.2023
Datum Zeit Temp. Aussen Temp. o. S. Temp +5cm Feuchte Auss Luftdruck Regen Sonnenschein Regendauer Solar Windben Empfang
12.05.2023 00:00 13,7 C 12,8 C 9,4 C 97 % 1015,6 hPa 0,0 l/m 0 min 2 min 0 W/m 3,2 km/h (1 Bft) 95,74 %
12.05.2023 00:02 13,7 C 12,8 C 9,4 C 97 % 1015,5 hPa 0,0 l/m 0 min 2 min 0 W/m 6,4 km/h (2 Bft) 94,87 %
12.05.2023 00:04 13,7 C 12,8 C 9,4 C 97 % 1015,5 hPa 0,0 l/m 0 min 2 min 0 W/m 9,7 km/h (2 Bft) 93,02 %
12.05.2023 00:09 13,6 C 12,8 C 8,9 C 97 % 1015,5 hPa 0,0 l/m 0 min 5 min 0 W/m 6,4 km/h (2 Bft) 94,17 %
12.05.2023 00:12 13,6 C 12,8 C 8,9 C 97 % 1015,5 hPa 0,0 l/m 0 min 3 min 0 W/m 9,7 km/h (2 Bft) 95,71 %
12.05.2023 00:16 13,6 C 12,8 C 8,9 C 97 % 1015,5 hPa 0,0 l/m 0 min 4 min 0 W/m 6,4 km/h (2 Bft) 96,77 %
12.05.2023 00:18 13,6 C 12,8 C 8,9 C 97 % 1015,5 hPa 0,0 l/m 0 min 2 min 0 W/m 9,7 km/h (2 Bft) 97,87 %
12.05.2023 00:20 13,6 C 12,8 C 8,9 C 97 % 1015,5 hPa 0,0 l/m 0 min 2 min 0 W/m 9,7 km/h (2 Bft) 97,87 %
12.05.2023 00:22 13,6 C 12,8 C 8,9 C 97 % 1015,5 hPa 0,0 l/m 0 min 2 min 0 W/m 0,0 km/h (0 Bft) 93,62 %
12.05.2023 00:24 13,6 C 12,8 C 8,9 C 97 % 1015,4 hPa 0,0 l/m 0 min 2 min 0 W/m 0,0 km/h (0 Bft) 97,87 %
12.05.2023 00:26 13,6 C 12,8 C 8,9 C 97 % 1015,4 hPa 0,0 l/m 0 min 2 min 0 W/m 0,0 km/h (0 Bft) 93,62 %
12.05.2023 00:28 13,6 C 12,8 C 8,9 C 97 % 1015,4 hPa 0,0 l/m 0 min 2 min 0 W/m 9,7 km/h (2 Bft) 93,48 %
12.05.2023 00:30 13,5 C 12,8 C 9,4 C 97 % 1015,4 hPa 0,0 l/m 0 min 2 min 0 W/m 6,4 km/h (2 Bft) 95,74 %
12.05.2023 00:32 13,5 C 12,8 C 9,4 C 97 % 1015,4 hPa 0,0 l/m 0 min 2 min 0 W/m 3,2 km/h (1 Bft) 97,87 %
12.05.2023 00:34 13,6 C 12,8 C 9,4 C 97 % 1015,4 hPa 0,0 l/m 0 min 2 min 0 W/m 3,2 km/h (1 Bft) 97,87 %
12.05.2023 00:36 13,6 C 12,8 C 9,4 C 97 % 1015,4 hPa 0,0 l/m 0 min 2 min 0 W/m 9,7 km/h (2 Bft) 100,00 %
12.05.2023 00:38 13,6 C 12,8 C 9,4 C 97 % 1015,3 hPa 0,0 l/m 0 min 2 min 0 W/m 6,4 km/h (2 Bft) 100,00 %
12.05.2023 00:40 13,6 C 12,8 C 9,4 C 97 % 1015,4 hPa 0,0 l/m 0 min 2 min 0 W/m 9,7 km/h (2 Bft) 95,65 %
12.05.2023 00:42 13,6 C 12,8 C 9,4 C 97 % 1015,4 hPa 0,0 l/m 0 min 2 min 0 W/m 3,2 km/h (1 Bft) 97,87 %
12.05.2023 00:44 13,6 C 12,8 C 9,4 C 97 % 1015,4 hPa 0,0 l/m 0 min 2 min 0 W/m 0,0 km/h (0 Bft) 97,87 %
12.05.2023 00:46 13,6 C 12,8 C 9,4 C 97 % 1015,3 hPa 0,0 l/m 0 min 2 min 0 W/m 0,0 km/h (0 Bft) 93,62 %
12.05.2023 00:48 13,6 C 12,8 C 9,4 C 97 % 1015,4 hPa 0,0 l/m 0 min 2 min 0 W/m 0,0 km/h (0 Bft) 95,74 %
12.05.2023 00:50 13,6 C 12,8 C 9,4 C 97 % 1015,4 hPa 0,0 l/m 0 min 2 min 0 W/m 0,0 km/h (0 Bft) 97,87 %
12.05.2023 00:52 13,5 C 12,8 C 9,4 C 97 % 1015,3 hPa 0,0 l/m 0 min 2 min 0 W/m 0,0 km/h (0 Bft) 95,65 %
12.05.2023 00:54 13,6 C 12,8 C 9,4 C 97 % 1015,4 hPa 0,0 l/m 0 min 2 min 0 W/m 0,0 km/h (0 Bft) 93,62 %
12.05.2023 00:56 13,5 C 12,8 C 9,4 C 97 % 1015,3 hPa 0,0 l/m 0 min 2 min 0 W/m 0,0 km/h (0 Bft) 97,87 %
12.05.2023 00:58 13,5 C 12,8 C 9,4 C 98 % 1015,3 hPa 0,0 l/m 0 min 2 min 0 W/m 0,0 km/h (0 Bft) 95,74 %
12.05.2023 01:00 13,5 C 12,8 C 9,4 C 98 % 1015,3 hPa 0,0 l/m 0 min 2 min 0 W/m 0,0 km/h (0 Bft) 97,87 %
12.05.2023 01:02 13,6 C 12,8 C 9,4 C 98 % 1015,3 hPa 0,0 l/m 0 min 2 min 0 W/m 0,0 km/h (0 Bft) 97,87 %
12.05.2023 01:04 13,6 C 12,8 C 9,4 C 98 % 1015,3 hPa 0,0 l/m 0 min 2 min 0 W/m 0,0 km/h (0 Bft) 95,92 %
12.05.2023 01:07 13,6 C 12,8 C 9,4 C 98 % 1015,3 hPa 0,0 l/m 0 min 3 min 0 W/m 0,0 km/h (0 Bft) 95,77 %
12.05.2023 01:10 13,6 C 12,8 C 9,4 C 98 % 1015,3 hPa 0,0 l/m 0 min 3 min 0 W/m 0,0 km/h (0 Bft) 95,71 %
12.05.2023 01:12 13,6 C 12,8 C 9,4 C 98 % 1015,3 hPa 0,0 l/m 0 min 2 min 0 W/m 0,0 km/h (0 Bft) 97,87 %
12.05.2023 01:14 13,6 C 12,8 C 9,4 C 98 % 1015,3 hPa 0,0 l/m 0 min 2 min 0 W/m 0,0 km/h (0 Bft) 95,74 %
12.05.2023 01:16 13,6 C 12,8 C 9,4 C 98 % 1015,2 hPa 0,0 l/m 0 min 2 min 0 W/m 0,0 km/h (0 Bft) 95,65 %
12.05.2023 01:18 13,6 C 12,8 C 9,4 C 98 % 1015,3 hPa 0,0 l/m 0 min 2 min 0 W/m 0,0 km/h (0 Bft) 97,87 %
12.05.2023 01:20 13,6 C 12,8 C 9,4 C 98 % 1015,2 hPa 0,0 l/m 0 min 2 min 0 W/m 0,0 km/h (0 Bft) 95,74 %
12.05.2023 01:22 13,6 C 12,8 C 9,4 C 98 % 1015,2 hPa 0,0 l/m 0 min 2 min 0 W/m 0,0 km/h (0 Bft) 95,74 %
12.05.2023 01:24 13,6 C 12,8 C 9,4 C 98 % 1015,2 hPa 0,0 l/m 0 min 2 min 0 W/m 0,0 km/h (0 Bft) 95,74 %
12.05.2023 01:26 13,6 C 12,8 C 9,4 C 98 % 1015,2 hPa 0,0 l/m 0 min 2 min 0 W/m 0,0 km/h (0 Bft) 93,48 %
12.05.2023 01:28 13,6 C 12,8 C 9,4 C 98 % 1015,2 hPa 0,0 l/m 0 min 2 min 0 W/m 0,0 km/h (0 Bft) 95,74 %
12.05.2023 01:30 13,6 C 12,8 C 9,4 C 98 % 1015,1 hPa 0,0 l/m 0 min 2 min 0 W/m 0,0 km/h (0 Bft) 95,74 %
12.05.2023 01:32 13,5 C 12,2 C 9,4 C 98 % 1015,1 hPa 0,0 l/m 0 min 2 min 0 W/m 9,7 km/h (2 Bft) 95,74 %
12.05.2023 01:34 13,5 C 12,2 C 9,4 C 98 % 1015,1 hPa 0,0 l/m 0 min 2 min 0 W/m 3,2 km/h (1 Bft) 92,59 %
12.05.2023 01:36 13,5 C 12,2 C 9,4 C 98 % 1015,1 hPa 0,0 l/m 0 min 2 min 0 W/m 6,4 km/h (2 Bft) 95,74 %
12.05.2023 01:38 13,5 C 12,2 C 9,4 C 98 % 1015,1 hPa 0,0 l/m 0 min 2 min 0 W/m 9,7 km/h (2 Bft) 97,14 %
12.05.2023 01:40 13,4 C 12,2 C 9,4 C 98 % 1015,0 hPa 0,0 l/m 0 min 2 min 0 W/m 3,2 km/h (1 Bft) 95,74 %
12.05.2023 01:42 13,4 C 12,2 C 9,4 C 98 % 1015,0 hPa 0,0 l/m 0 min 2 min 0 W/m 3,2 km/h (1 Bft) 96,15 %
12.05.2023 01:44 13,4 C 12,2 C 9,4 C 98 % 1015,1 hPa 0,0 l/m 0 min 2 min 0 W/m 3,2 km/h (1 Bft) 97,87 %
12.05.2023 01:46 13,4 C 12,2 C 9,4 C 98 % 1015,0 hPa 0,0 l/m 0 min 2 min 0 W/m 6,4 km/h (2 Bft) 97,87 %
12.05.2023 01:48 13,4 C 12,2 C 9,4 C 98 % 1015,0 hPa 0,0 l/m 0 min 2 min 0 W/m 3,2 km/h (1 Bft) 97,87 %
12.05.2023 01:50 13,4 C 12,2 C 9,4 C 98 % 1015,0 hPa 0,0 l/m 0 min 2 min 0 W/m 3,2 km/h (1 Bft) 97,87 %
12.05.2023 01:52 13,4 C 12,2 C 9,4 C 98 % 1015,0 hPa 0,0 l/m 0 min 2 min 0 W/m 3,2 km/h (1 Bft) 97,83 %
12.05.2023 01:54 13,4 C 12,2 C 9,4 C 98 % 1015,0 hPa 0,0 l/m 0 min 2 min 0 W/m 6,4 km/h (2 Bft) 95,74 %
12.05.2023 01:56 13,4 C 12,2 C 9,4 C 98 % 1015,0 hPa 0,0 l/m 0 min 2 min 0 W/m 3,2 km/h (1 Bft) 100,00 %
12.05.2023 01:58 13,4 C 12,2 C 9,4 C 98 % 1014,9 hPa 0,0 l/m 0 min 2 min 0 W/m 3,2 km/h (1 Bft) 97,87 %
12.05.2023 02:00 13,4 C 12,2 C 9,4 C 98 % 1014,9 hPa 0,0 l/m 0 min 2 min 0 W/m 3,2 km/h (1 Bft) 95,74 %
12.05.2023 02:02 13,4 C 12,2 C 9,4 C 98 % 1014,8 hPa 0,0 l/m 0 min 2 min 0 W/m 6,4 km/h (2 Bft) 97,87 %
12.05.2023 02:04 13,4 C 12,2 C 9,4 C 98 % 1014,8 hPa 0,0 l/m 0 min 2 min 0 W/m 6,4 km/h (2 Bft) 100,00 %
12.05.2023 02:06 13,4 C 12,2 C 9,4 C 98 % 1014,8 hPa 0,0 l/m 0 min 0 min 0 W/m 9,7 km/h (2 Bft) 100,00 %
12.05.2023 02:08 13,4 C 12,2 C 9,4 C 98 % 1014,8 hPa 0,0 l/m 0 min 2 min 0 W/m 3,2 km/h (1 Bft) 100,00 %
12.05.2023 02:10 13,4 C 12,2 C 9,4 C 98 % 1014,7 hPa 0,0 l/m 0 min 0 min 0 W/m 6,4 km/h (2 Bft) 97,87 %
12.05.2023 02:12 13,4 C 12,2 C 9,4 C 98 % 1014,7 hPa 0,0 l/m 0 min 2 min 0 W/m 6,4 km/h (2 Bft) 100,00 %
12.05.2023 02:14 13,4 C 12,2 C 9,4 C 98 % 1014,7 hPa 0,0 l/m 0 min 2 min 0 W/m 6,4 km/h (2 Bft) 100,00 %
12.05.2023 02:16 13,4 C 12,2 C 9,4 C 98 % 1014,7 hPa 0,0 l/m 0 min 2 min 0 W/m 6,4 km/h (2 Bft) 97,83 %
12.05.2023 02:18 13,3 C 12,2 C 9,4 C 98 % 1014,7 hPa 0,0 l/m 0 min 0 min 0 W/m 9,7 km/h (2 Bft) 100,00 %
12.05.2023 02:20 13,3 C 12,2 C 9,4 C 98 % 1014,7 hPa 0,0 l/m 0 min 0 min 0 W/m 9,7 km/h (2 Bft) 100,00 %
12.05.2023 02:22 13,3 C 12,2 C 8,9 C 98 % 1014,7 hPa 0,0 l/m 0 min 0 min 0 W/m 9,7 km/h (2 Bft) 100,00 %
12.05.2023 02:24 13,3 C 12,2 C 8,9 C 98 % 1014,7 hPa 0,0 l/m 0 min 2 min 0 W/m 6,4 km/h (2 Bft) 100,00 %
12.05.2023 02:26 13,3 C 12,2 C 8,9 C 98 % 1014,7 hPa 0,0 l/m 0 min 2 min 0 W/m 6,4 km/h (2 Bft) 100,00 %
12.05.2023 02:28 13,3 C 12,2 C 8,9 C 98 % 1014,7 hPa 0,0 l/m 0 min 2 min 0 W/m 6,4 km/h (2 Bft) 100,00 %
12.05.2023 02:30 13,3 C 12,2 C 9,4 C 98 % 1014,7 hPa 0,0 l/m 0 min 0 min 0 W/m 9,7 km/h (2 Bft) 100,00 %
12.05.2023 02:32 13,3 C 12,2 C 8,9 C 98 % 1014,6 hPa 0,0 l/m 0 min 0 min 0 W/m 16,1 km/h (3 Bft) 97,87 %
12.05.2023 02:34 13,2 C 12,2 C 8,9 C 98 % 1014,6 hPa 0,0 l/m 0 min 0 min 0 W/m 9,7 km/h (2 Bft) 100,00 %
12.05.2023 02:36 13,2 C 12,2 C 8,9 C 98 % 1014,6 hPa 0,0 l/m 0 min 2 min 0 W/m 9,7 km/h (2 Bft) 97,83 %
12.05.2023 02:38 13,2 C 12,2 C 8,9 C 98 % 1014,6 hPa 0,0 l/m 0 min 2 min 0 W/m 9,7 km/h (2 Bft) 100,00 %
12.05.2023 02:40 13,2 C 12,2 C 8,9 C 98 % 1014,6 hPa 0,0 l/m 0 min 2 min 0 W/m 6,4 km/h (2 Bft) 100,00 %
12.05.2023 02:42 13,2 C 12,2 C 8,9 C 98 % 1014,6 hPa 0,0 l/m 0 min 2 min 0 W/m 16,1 km/h (3 Bft) 95,74 %
12.05.2023 02:44 13,2 C 12,2 C 8,9 C 98 % 1014,6 hPa 0,0 l/m 0 min 2 min 0 W/m 12,9 km/h (3 Bft) 97,87 %
12.05.2023 02:46 13,1 C 12,2 C 8,9 C 98 % 1014,5 hPa 0,0 l/m 0 min 2 min 0 W/m 12,9 km/h (3 Bft) 95,74 %
12.05.2023 02:48 13,1 C 12,2 C 8,9 C 98 % 1014,6 hPa 0,0 l/m 0 min 0 min 0 W/m 9,7 km/h (2 Bft) 97,83 %
12.05.2023 02:50 13,1 C 12,2 C 8,9 C 98 % 1014,5 hPa 0,0 l/m 0 min 2 min 0 W/m 9,7 km/h (2 Bft) 97,87 %
12.05.2023 02:52 13,1 C 12,2 C 8,9 C 98 % 1014,5 hPa 0,0 l/m 0 min 2 min 0 W/m 9,7 km/h (2 Bft) 97,87 %
12.05.2023 02:54 13,1 C 12,2 C 8,9 C 98 % 1014,4 hPa 0,0 l/m 0 min 0 min 0 W/m 19,3 km/h (3 Bft) 97,92 %
12.05.2023 02:56 13,1 C 12,2 C 8,9 C 98 % 1014,5 hPa 0,0 l/m 0 min 2 min 0 W/m 9,7 km/h (2 Bft) 97,87 %
12.05.2023 02:58 13,1 C 12,2 C 8,9 C 98 % 1014,5 hPa 0,0 l/m 0 min 2 min 0 W/m 9,7 km/h (2 Bft) 93,62 %
12.05.2023 03:00 13,1 C 12,2 C 8,9 C 98 % 1014,4 hPa 2,0 l/m 0 min 2 min 0 W/m 12,9 km/h (3 Bft) 100,00 %
12.05.2023 03:02 13,0 C 12,2 C 8,9 C 98 % 1014,5 hPa 2,0 l/m 0 min 2 min 0 W/m 12,9 km/h (3 Bft) 93,48 %
12.05.2023 03:04 13,0 C 12,2 C 8,9 C 98 % 1014,4 hPa 2,0 l/m 0 min 2 min 0 W/m 9,7 km/h (2 Bft) 97,96 %
12.05.2023 03:06 13,0 C 12,2 C 8,9 C 98 % 1014,4 hPa 2,0 l/m 0 min 2 min 0 W/m 9,7 km/h (2 Bft) 97,87 %
12.05.2023 03:08 12,9 C 12,2 C 8,9 C 98 % 1014,4 hPa 2,0 l/m 0 min 2 min 0 W/m 9,7 km/h (2 Bft) 95,74 %
12.05.2023 03:10 12,9 C 12,2 C 8,9 C 98 % 1014,3 hPa 0,2 l/m 0 min 2 min 0 W/m 9,7 km/h (2 Bft) 97,87 %
12.05.2023 03:12 12,9 C 11,7 C 8,9 C 98 % 1014,4 hPa 0,0 l/m 0 min 2 min 0 W/m 9,7 km/h (2 Bft) 95,74 %
12.05.2023 03:14 12,9 C 11,7 C 8,9 C 98 % 1014,3 hPa 0,0 l/m 0 min 2 min 0 W/m 19,3 km/h (3 Bft) 95,65 %
12.05.2023 03:16 12,8 C 11,7 C 8,9 C 98 % 1014,3 hPa 0,0 l/m 0 min 2 min 0 W/m 9,7 km/h (2 Bft) 97,87 %
12.05.2023 03:18 12,8 C 11,7 C 8,9 C 98 % 1014,3 hPa 0,0 l/m 0 min 2 min 0 W/m 12,9 km/h (3 Bft) 93,62 %
12.05.2023 03:20 12,8 C 11,7 C 8,9 C 98 % 1014,3 hPa 0,0 l/m 0 min 2 min 0 W/m 12,9 km/h (3 Bft) 91,49 %
12.05.2023 03:22 12,8 C 11,7 C 8,9 C 98 % 1014,3 hPa 0,0 l/m 0 min 2 min 0 W/m 9,7 km/h (2 Bft) 93,75 %
12.05.2023 03:24 12,8 C 11,7 C 8,9 C 98 % 1014,3 hPa 0,0 l/m 0 min 2 min 0 W/m 12,9 km/h (3 Bft) 91,49 %
12.05.2023 03:26 12,7 C 11,7 C 8,9 C 98 % 1014,3 hPa 0,0 l/m 0 min 2 min 0 W/m 12,9 km/h (3 Bft) 91,30 %
12.05.2023 03:28 12,7 C 11,7 C 8,9 C 98 % 1014,3 hPa 0,0 l/m 0 min 2 min 0 W/m 12,9 km/h (3 Bft) 93,62 %
12.05.2023 03:30 12,7 C 11,7 C 8,9 C 98 % 1014,3 hPa 0,0 l/m 0 min 2 min 0 W/m 9,7 km/h (2 Bft) 95,74 %
12.05.2023 03:32 12,7 C 11,7 C 8,9 C 98 % 1014,2 hPa 0,0 l/m 0 min 2 min 0 W/m 12,9 km/h (3 Bft) 91,49 %
12.05.2023 03:34 12,6 C 11,7 C 8,9 C 98 % 1014,2 hPa 0,2 l/m 0 min 2 min 0 W/m 9,7 km/h (2 Bft) 95,74 %
12.05.2023 03:36 12,6 C 11,7 C 8,9 C 98 % 1014,2 hPa 0,0 l/m 0 min 2 min 0 W/m 6,4 km/h (2 Bft) 93,48 %
12.05.2023 03:38 12,6 C 11,7 C 8,9 C 98 % 1014,2 hPa 0,0 l/m 0 min 2 min 0 W/m 12,9 km/h (3 Bft) 91,49 %
12.05.2023 03:40 12,6 C 11,7 C 8,3 C 98 % 1014,1 hPa 0,0 l/m 0 min 2 min 0 W/m 19,3 km/h (3 Bft) 93,62 %
12.05.2023 03:42 12,6 C 11,7 C 8,3 C 98 % 1014,2 hPa 0,0 l/m 0 min 2 min 0 W/m 16,1 km/h (3 Bft) 93,62 %
12.05.2023 03:44 12,5 C 11,7 C 8,3 C 98 % 1014,1 hPa 0,0 l/m 0 min 2 min 0 W/m 16,1 km/h (3 Bft) 95,74 %
12.05.2023 03:46 12,5 C 11,7 C 8,3 C 98 % 1014,1 hPa 0,0 l/m 0 min 2 min 0 W/m 12,9 km/h (3 Bft) 95,74 %
12.05.2023 03:48 12,5 C 11,7 C 8,3 C 98 % 1014,2 hPa 0,0 l/m 0 min 2 min 0 W/m 9,7 km/h (2 Bft) 93,48 %
12.05.2023 03:50 12,4 C 11,7 C 8,3 C 98 % 1014,1 hPa 0,0 l/m 0 min 2 min 0 W/m 6,4 km/h (2 Bft) 93,62 %
12.05.2023 03:52 12,4 C 11,7 C 8,3 C 98 % 1014,0 hPa 0,0 l/m 0 min 2 min 0 W/m 9,7 km/h (2 Bft) 95,74 %
12.05.2023 03:54 12,4 C 11,7 C 8,9 C 98 % 1014,0 hPa 0,0 l/m 0 min 2 min 0 W/m 19,3 km/h (3 Bft) 97,87 %
12.05.2023 03:56 12,4 C 11,7 C 8,9 C 98 % 1013,9 hPa 0,0 l/m 0 min 2 min 0 W/m 12,9 km/h (3 Bft) 97,87 %
12.05.2023 03:58 12,4 C 11,7 C 8,9 C 98 % 1013,9 hPa 0,0 l/m 0 min 2 min 0 W/m 9,7 km/h (2 Bft) 95,74 %
12.05.2023 04:00 12,4 C 11,7 C 8,9 C 98 % 1014,0 hPa 0,0 l/m 0 min 2 min 0 W/m 6,4 km/h (2 Bft) 97,83 %
12.05.2023 04:02 12,4 C 11,1 C 8,9 C 98 % 1014,0 hPa 0,0 l/m 0 min 2 min 0 W/m 6,4 km/h (2 Bft) 100,00 %
12.05.2023 04:08 12,3 C 11,1 C 8,3 C 98 % 1014,1 hPa 0,0 l/m 0 min 5 min 0 W/m 12,9 km/h (3 Bft) 100,00 %
12.05.2023 04:09 12,3 C 11,1 C 8,3 C 98 % 1014,1 hPa 0,0 l/m 0 min 1 min 0 W/m 9,7 km/h (2 Bft) 100,00 %
12.05.2023 04:10 12,3 C 11,1 C 8,3 C 98 % 1014,1 hPa 0,0 l/m 0 min 1 min 0 W/m 12,9 km/h (3 Bft) 100,00 %
12.05.2023 04:14 12,3 C 11,1 C 8,3 C 98 % 1013,9 hPa 0,0 l/m 0 min 4 min 0 W/m 9,7 km/h (2 Bft) 100,00 %
12.05.2023 04:16 12,2 C 11,1 C 8,3 C 99 % 1013,9 hPa 0,0 l/m 0 min 0 min 0 W/m 9,7 km/h (2 Bft) 97,92 %
12.05.2023 04:18 12,2 C 11,1 C 8,3 C 99 % 1013,9 hPa 0,0 l/m 0 min 0 min 0 W/m 9,7 km/h (2 Bft) 100,00 %
12.05.2023 04:20 12,2 C 11,1 C 8,3 C 99 % 1013,9 hPa 0,0 l/m 0 min 0 min 0 W/m 12,9 km/h (3 Bft) 100,00 %
12.05.2023 04:22 12,2 C 11,1 C 8,3 C 99 % 1013,8 hPa 0,0 l/m 0 min 2 min 0 W/m 6,4 km/h (2 Bft) 97,83 %
12.05.2023 04:24 12,2 C 11,1 C 8,3 C 99 % 1013,8 hPa 0,0 l/m 0 min 2 min 0 W/m 6,4 km/h (2 Bft) 100,00 %
12.05.2023 04:26 12,2 C 11,1 C 8,3 C 99 % 1013,8 hPa 0,0 l/m 0 min 0 min 0 W/m 9,7 km/h (2 Bft) 100,00 %
12.05.2023 04:28 12,2 C 11,1 C 8,3 C 99 % 1013,6 hPa 0,0 l/m 0 min 0 min 0 W/m 12,9 km/h (3 Bft) 100,00 %
12.05.2023 04:30 12,2 C 11,1 C 8,3 C 99 % 1013,8 hPa 0,0 l/m 0 min 0 min 0 W/m 0,0 km/h (0 Bft) 100,00 %
12.05.2023 04:32 12,2 C 11,1 C 8,3 C 99 % 1013,6 hPa 0,0 l/m 0 min 0 min 0 W/m 0,0 km/h (0 Bft) 100,00 %
12.05.2023 04:34 12,2 C 11,1 C 8,3 C 99 % 1013,6 hPa 0,0 l/m 0 min 0 min 0 W/m 3,2 km/h (1 Bft) 100,00 %
12.05.2023 04:36 12,2 C 11,1 C 8,3 C 99 % 1013,7 hPa 0,0 l/m 0 min 0 min 0 W/m 6,4 km/h (2 Bft) 100,00 %
12.05.2023 04:38 12,2 C 11,1 C 8,3 C 99 % 1013,8 hPa 0,0 l/m 0 min 0 min 0 W/m 9,7 km/h (2 Bft) 100,00 %
12.05.2023 04:40 12,2 C 11,7 C 8,9 C 99 % 1013,7 hPa 0,0 l/m 0 min 0 min 0 W/m 3,2 km/h (1 Bft) 97,87 %
12.05.2023 04:42 12,2 C 11,7 C 8,9 C 99 % 1013,7 hPa 0,0 l/m 0 min 0 min 0 W/m 6,4 km/h (2 Bft) 100,00 %
12.05.2023 04:44 12,2 C 11,1 C 8,9 C 99 % 1013,7 hPa 0,0 l/m 0 min 0 min 0 W/m 6,4 km/h (2 Bft) 100,00 %
12.05.2023 04:46 12,2 C 11,7 C 8,9 C 99 % 1013,6 hPa 0,0 l/m 0 min 0 min 0 W/m 9,7 km/h (2 Bft) 100,00 %
12.05.2023 04:48 12,2 C 11,1 C 8,9 C 99 % 1013,6 hPa 0,0 l/m 0 min 0 min 0 W/m 3,2 km/h (1 Bft) 100,00 %
12.05.2023 04:50 12,2 C 11,7 C 8,9 C 99 % 1013,7 hPa 0,0 l/m 0 min 0 min 0 W/m 3,2 km/h (1 Bft) 97,87 %
12.05.2023 04:52 12,2 C 11,7 C 8,9 C 99 % 1013,8 hPa 0,0 l/m 0 min 0 min 0 W/m 6,4 km/h (2 Bft) 100,00 %
12.05.2023 04:54 12,2 C 11,1 C 8,9 C 99 % 1013,7 hPa 0,0 l/m 0 min 0 min 0 W/m 3,2 km/h (1 Bft) 97,83 %
12.05.2023 04:56 12,2 C 11,7 C 8,9 C 99 % 1013,7 hPa 0,0 l/m 0 min 0 min 0 W/m 6,4 km/h (2 Bft) 100,00 %
12.05.2023 04:58 12,2 C 11,7 C 8,9 C 99 % 1013,7 hPa 0,0 l/m 0 min 0 min 0 W/m 6,4 km/h (2 Bft) 97,87 %
12.05.2023 05:00 12,2 C 11,7 C 8,9 C 99 % 1013,7 hPa 0,0 l/m 0 min 0 min 0 W/m 3,2 km/h (1 Bft) 95,74 %
12.05.2023 05:02 12,3 C 11,7 C 8,9 C 99 % 1013,8 hPa 0,0 l/m 0 min 0 min 0 W/m 0,0 km/h (0 Bft) 100,00 %
12.05.2023 05:04 12,3 C 11,7 C 8,9 C 99 % 1013,8 hPa 0,0 l/m 0 min 0 min 0 W/m 0,0 km/h (0 Bft) 100,00 %
12.05.2023 05:06 12,3 C 11,7 C 8,9 C 99 % 1013,7 hPa 0,0 l/m 0 min 0 min 0 W/m 0,0 km/h (0 Bft) 97,92 %
12.05.2023 05:08 12,3 C 11,7 C 8,9 C 99 % 1013,7 hPa 0,0 l/m 0 min 0 min 0 W/m 0,0 km/h (0 Bft) 100,00 %
12.05.2023 05:10 12,3 C 11,7 C 8,9 C 99 % 1013,7 hPa 0,0 l/m 0 min 0 min 0 W/m 0,0 km/h (0 Bft) 100,00 %
12.05.2023 05:12 12,3 C 11,7 C 8,9 C 99 % 1013,8 hPa 0,0 l/m 0 min 0 min 0 W/m 0,0 km/h (0 Bft) 100,00 %
12.05.2023 05:14 12,3 C 11,7 C 8,9 C 99 % 1013,7 hPa 0,0 l/m 0 min 0 min 0 W/m 0,0 km/h (0 Bft) 97,87 %
12.05.2023 05:16 12,3 C 11,7 C 8,9 C 99 % 1013,7 hPa 0,0 l/m 0 min 0 min 0 W/m 0,0 km/h (0 Bft) 97,83 %
12.05.2023 05:18 12,3 C 11,7 C 8,9 C 99 % 1013,7 hPa 0,0 l/m 0 min 0 min 0 W/m 0,0 km/h (0 Bft) 97,87 %
12.05.2023 05:20 12,3 C 11,7 C 8,9 C 99 % 1013,8 hPa 0,0 l/m 0 min 0 min 0 W/m 0,0 km/h (0 Bft) 95,74 %
12.05.2023 05:22 12,3 C 11,7 C 8,9 C 99 % 1013,8 hPa 0,0 l/m 0 min 0 min 0 W/m 0,0 km/h (0 Bft) 97,87 %
12.05.2023 05:24 12,3 C 11,7 C 8,9 C 99 % 1013,9 hPa 0,0 l/m 0 min 0 min 0 W/m 0,0 km/h (0 Bft) 97,87 %
12.05.2023 05:26 12,3 C 11,7 C 8,9 C 99 % 1013,8 hPa 0,0 l/m 0 min 0 min 0 W/m 0,0 km/h (0 Bft) 97,87 %
12.05.2023 05:28 12,3 C 11,7 C 8,9 C 99 % 1013,7 hPa 0,0 l/m 0 min 0 min 0 W/m 0,0 km/h (0 Bft) 95,65 %
12.05.2023 05:30 12,3 C 11,7 C 8,9 C 99 % 1013,7 hPa 0,0 l/m 0 min 0 min 0 W/m 0,0 km/h (0 Bft) 95,74 %
12.05.2023 05:32 12,3 C 11,7 C 8,9 C 99 % 1013,7 hPa 0,0 l/m 0 min 0 min 0 W/m 6,4 km/h (2 Bft) 95,74 %
12.05.2023 05:34 12,3 C 11,7 C 8,9 C 99 % 1013,8 hPa 0,0 l/m 0 min 0 min 0 W/m 0,0 km/h (0 Bft) 93,62 %
12.05.2023 05:36 12,3 C 11,7 C 8,9 C 99 % 1013,8 hPa 0,0 l/m 0 min 0 min 0 W/m 0,0 km/h (0 Bft) 95,74 %
12.05.2023 05:38 12,3 C 11,7 C 8,9 C 99 % 1013,9 hPa 0,0 l/m 0 min 0 min 0 W/m 0,0 km/h (0 Bft) 95,74 %
12.05.2023 05:40 12,3 C 11,7 C 8,9 C 99 % 1013,9 hPa 0,0 l/m 0 min 0 min 0 W/m 0,0 km/h (0 Bft) 97,83 %
12.05.2023 05:42 12,3 C 11,7 C 8,9 C 99 % 1013,9 hPa 0,0 l/m 0 min 0 min 0 W/m 0,0 km/h (0 Bft) 95,74 %
12.05.2023 05:44 12,3 C 11,7 C 8,9 C 99 % 1013,9 hPa 0,0 l/m 0 min 0 min 0 W/m 0,0 km/h (0 Bft) 95,74 %
12.05.2023 05:46 12,3 C 11,7 C 8,9 C 99 % 1013,9 hPa 0,0 l/m 0 min 0 min 0 W/m 0,0 km/h (0 Bft) 97,87 %
12.05.2023 05:48 12,3 C 11,7 C 8,9 C 99 % 1014,0 hPa 0,0 l/m 0 min 0 min 0 W/m 0,0 km/h (0 Bft) 97,87 %
12.05.2023 05:50 12,3 C 11,7 C 8,9 C 99 % 1014,0 hPa 0,0 l/m 0 min 0 min 0 W/m 0,0 km/h (0 Bft) 97,87 %
12.05.2023 05:52 12,3 C 11,7 C 8,9 C 99 % 1014,0 hPa 0,0 l/m 0 min 0 min 0 W/m 0,0 km/h (0 Bft) 93,48 %
12.05.2023 05:54 12,3 C 11,7 C 8,9 C 99 % 1014,0 hPa 0,0 l/m 0 min 0 min 0 W/m 0,0 km/h (0 Bft) 95,74 %
12.05.2023 05:56 12,3 C 11,7 C 8,9 C 99 % 1014,0 hPa 0,0 l/m 0 min 0 min 0 W/m 0,0 km/h (0 Bft) 95,74 %
12.05.2023 05:58 12,3 C 11,7 C 8,9 C 99 % 1014,1 hPa 0,0 l/m 0 min 0 min 0 W/m 0,0 km/h (0 Bft) 95,74 %
12.05.2023 06:00 12,3 C 11,7 C 8,9 C 99 % 1014,0 hPa 0,0 l/m 0 min 0 min 0 W/m 0,0 km/h (0 Bft) 95,74 %
12.05.2023 06:02 12,3 C 11,7 C 8,9 C 99 % 1014,0 hPa 0,0 l/m 0 min 0 min 0 W/m 0,0 km/h (0 Bft) 95,74 %
12.05.2023 06:04 12,3 C 11,7 C 8,9 C 99 % 1014,0 hPa 0,0 l/m 0 min 0 min 0 W/m 3,2 km/h (1 Bft) 93,48 %
12.05.2023 06:08 12,3 C 11,7 C 8,9 C 99 % 1014,1 hPa 0,0 l/m 0 min 0 min 0 W/m 3,2 km/h (1 Bft) 95,24 %
12.05.2023 06:10 12,3 C 11,7 C 8,9 C 99 % 1014,1 hPa 0,0 l/m 0 min 0 min 0 W/m 3,2 km/h (1 Bft) 93,22 %
12.05.2023 06:12 12,3 C 11,7 C 8,9 C 99 % 1014,1 hPa 0,0 l/m 0 min 0 min 4 W/m 3,2 km/h (1 Bft) 97,14 %
12.05.2023 06:16 12,3 C 11,7 C 8,9 C 99 % 1014,2 hPa 0,0 l/m 0 min 0 min 5 W/m 3,2 km/h (1 Bft) 93,33 %
12.05.2023 06:18 12,3 C 11,7 C 8,9 C 99 % 1014,2 hPa 0,0 l/m 0 min 0 min 7 W/m 3,2 km/h (1 Bft) 94,29 %
12.05.2023 06:20 12,3 C 11,7 C 8,9 C 99 % 1014,2 hPa 0,0 l/m 0 min 0 min 7 W/m 3,2 km/h (1 Bft) 95,74 %
12.05.2023 06:22 12,3 C 11,7 C 8,9 C 99 % 1014,2 hPa 0,0 l/m 0 min 0 min 10 W/m 3,2 km/h (1 Bft) 95,74 %
12.05.2023 06:24 12,3 C 11,7 C 8,9 C 99 % 1014,3 hPa 0,0 l/m 0 min 0 min 11 W/m 0,0 km/h (0 Bft) 95,74 %
12.05.2023 06:26 12,3 C 11,7 C 8,9 C 99 % 1014,3 hPa 0,0 l/m 0 min 0 min 14 W/m 0,0 km/h (0 Bft) 94,74 %
12.05.2023 06:28 12,4 C 11,7 C 8,9 C 99 % 1014,3 hPa 0,0 l/m 0 min 0 min 17 W/m 0,0 km/h (0 Bft) 95,65 %
12.05.2023 06:30 12,4 C 11,7 C 8,9 C 99 % 1014,3 hPa 0,0 l/m 0 min 0 min 20 W/m 3,2 km/h (1 Bft) 97,87 %
12.05.2023 06:32 12,4 C 11,7 C 8,9 C 99 % 1014,3 hPa 0,0 l/m 0 min 0 min 24 W/m 3,2 km/h (1 Bft) 97,87 %
12.05.2023 06:34 12,4 C 11,7 C 8,9 C 99 % 1014,3 hPa 0,0 l/m 0 min 0 min 26 W/m 0,0 km/h (0 Bft) 97,87 %
12.05.2023 06:36 12,4 C 11,7 C 8,9 C 99 % 1014,3 hPa 0,0 l/m 0 min 0 min 26 W/m 0,0 km/h (0 Bft) 95,74 %
12.05.2023 06:38 12,4 C 11,7 C 8,9 C 99 % 1014,3 hPa 0,0 l/m 0 min 0 min 21 W/m 0,0 km/h (0 Bft) 97,83 %
12.05.2023 06:40 12,4 C 11,7 C 8,9 C 99 % 1014,3 hPa 0,0 l/m 0 min 0 min 18 W/m 0,0 km/h (0 Bft) 95,74 %
12.05.2023 06:42 12,4 C 11,7 C 8,9 C 99 % 1014,4 hPa 0,0 l/m 0 min 0 min 18 W/m 0,0 km/h (0 Bft) 97,87 %
12.05.2023 06:44 12,4 C 11,7 C 8,9 C 99 % 1014,4 hPa 0,0 l/m 0 min 0 min 19 W/m 0,0 km/h (0 Bft) 100,00 %
12.05.2023 06:46 12,5 C 11,7 C 8,9 C 99 % 1014,5 hPa 0,0 l/m 0 min 0 min 22 W/m 0,0 km/h (0 Bft) 97,87 %
12.05.2023 06:48 12,5 C 11,7 C 8,9 C 99 % 1014,5 hPa 0,0 l/m 0 min 0 min 25 W/m 0,0 km/h (0 Bft) 100,00 %
12.05.2023 06:50 12,5 C 11,7 C 8,9 C 99 % 1014,6 hPa 0,0 l/m 0 min 0 min 28 W/m 0,0 km/h (0 Bft) 100,00 %
12.05.2023 06:52 12,5 C 11,7 C 8,9 C 99 % 1014,6 hPa 0,0 l/m 0 min 0 min 31 W/m 0,0 km/h (0 Bft) 100,00 %
12.05.2023 06:54 12,5 C 11,7 C 8,9 C 99 % 1014,6 hPa 0,0 l/m 0 min 0 min 32 W/m 0,0 km/h (0 Bft) 97,87 %
12.05.2023 06:56 12,5 C 11,7 C 8,9 C 99 % 1014,7 hPa 0,0 l/m 0 min 0 min 32 W/m 0,0 km/h (0 Bft) 100,00 %
12.05.2023 06:58 12,5 C 11,7 C 8,9 C 99 % 1014,7 hPa 0,0 l/m 0 min 0 min 31 W/m 0,0 km/h (0 Bft) 97,87 %
12.05.2023 07:00 12,5 C 11,7 C 8,9 C 99 % 1014,7 hPa 0,0 l/m 0 min 0 min 27 W/m 0,0 km/h (0 Bft) 100,00 %
12.05.2023 07:02 12,5 C 11,7 C 8,9 C 99 % 1014,8 hPa 0,0 l/m 0 min 0 min 25 W/m 0,0 km/h (0 Bft) 100,00 %
12.05.2023 07:04 12,5 C 11,7 C 8,9 C 99 % 1014,8 hPa 0,0 l/m 0 min 0 min 23 W/m 0,0 km/h (0 Bft) 100,00 %
12.05.2023 07:06 12,5 C 11,7 C 8,9 C 99 % 1014,8 hPa 0,0 l/m 0 min 0 min 23 W/m 0,0 km/h (0 Bft) 95,74 %
12.05.2023 07:08 12,5 C 11,7 C 8,9 C 99 % 1014,8 hPa 0,0 l/m 0 min 0 min 23 W/m 0,0 km/h (0 Bft) 97,83 %
12.05.2023 07:10 12,6 C 12,2 C 8,9 C 99 % 1014,9 hPa 0,0 l/m 0 min 0 min 25 W/m 0,0 km/h (0 Bft) 97,87 %
12.05.2023 07:12 12,6 C 12,2 C 8,9 C 99 % 1015,0 hPa 0,0 l/m 0 min 0 min 30 W/m 0,0 km/h (0 Bft) 97,87 %
12.05.2023 07:14 12,6 C 12,2 C 8,9 C 99 % 1014,9 hPa 0,0 l/m 0 min 0 min 39 W/m 0,0 km/h (0 Bft) 97,87 %
12.05.2023 07:16 12,6 C 12,2 C 8,9 C 99 % 1014,9 hPa 0,0 l/m 0 min 0 min 44 W/m 0,0 km/h (0 Bft) 97,87 %
12.05.2023 07:18 12,6 C 12,2 C 8,9 C 99 % 1015,0 hPa 0,0 l/m 0 min 0 min 47 W/m 0,0 km/h (0 Bft) 97,87 %
12.05.2023 07:20 12,6 C 12,2 C 8,9 C 99 % 1015,0 hPa 0,0 l/m 0 min 0 min 48 W/m 0,0 km/h (0 Bft) 97,83 %
12.05.2023 07:22 12,7 C 12,2 C 8,9 C 99 % 1015,0 hPa 0,0 l/m 0 min 0 min 49 W/m 0,0 km/h (0 Bft) 97,87 %
12.05.2023 07:24 12,7 C 12,2 C 8,9 C 99 % 1015,0 hPa 0,0 l/m 0 min 0 min 50 W/m 0,0 km/h (0 Bft) 97,87 %
12.05.2023 07:26 12,7 C 12,2 C 8,9 C 99 % 1015,1 hPa 0,0 l/m 0 min 0 min 53 W/m 3,2 km/h (1 Bft) 97,87 %
12.05.2023 07:28 12,7 C 12,2 C 8,9 C 99 % 1015,1 hPa 0,0 l/m 0 min 0 min 54 W/m 6,4 km/h (2 Bft) 93,62 %
12.05.2023 07:30 12,7 C 12,2 C 8,9 C 99 % 1015,1 hPa 0,0 l/m 0 min 0 min 54 W/m 6,4 km/h (2 Bft) 97,87 %
12.05.2023 07:32 12,7 C 12,2 C 9,4 C 99 % 1015,2 hPa 0,0 l/m 0 min 0 min 55 W/m 6,4 km/h (2 Bft) 97,83 %
12.05.2023 07:34 12,8 C 12,2 C 9,4 C 99 % 1015,2 hPa 0,0 l/m 0 min 0 min 56 W/m 6,4 km/h (2 Bft) 97,87 %
12.05.2023 07:36 12,8 C 12,2 C 9,4 C 99 % 1015,2 hPa 0,0 l/m 0 min 0 min 59 W/m 0,0 km/h (0 Bft) 97,87 %
12.05.2023 07:38 12,8 C 12,2 C 9,4 C 99 % 1015,2 hPa 0,0 l/m 0 min 0 min 63 W/m 6,4 km/h (2 Bft) 97,87 %
12.05.2023 07:40 12,8 C 12,2 C 9,4 C 99 % 1015,2 hPa 0,0 l/m 0 min 0 min 68 W/m 9,7 km/h (2 Bft) 97,87 %
12.05.2023 07:42 12,8 C 12,8 C 9,4 C 99 % 1015,3 hPa 0,0 l/m 0 min 0 min 71 W/m 6,4 km/h (2 Bft) 100,00 %
12.05.2023 07:44 12,8 C 12,8 C 9,4 C 99 % 1015,3 hPa 0,0 l/m 0 min 0 min 76 W/m 6,4 km/h (2 Bft) 100,00 %
12.05.2023 07:46 12,8 C 12,8 C 9,4 C 99 % 1015,3 hPa 0,0 l/m 0 min 0 min 82 W/m 6,4 km/h (2 Bft) 100,00 %
12.05.2023 07:48 12,8 C 12,8 C 9,4 C 99 % 1015,4 hPa 0,0 l/m 0 min 0 min 87 W/m 16,1 km/h (3 Bft) 100,00 %
12.05.2023 07:50 12,8 C 12,8 C 9,4 C 99 % 1015,4 hPa 0,0 l/m 0 min 0 min 93 W/m 6,4 km/h (2 Bft) 100,00 %
12.05.2023 07:52 12,8 C 12,8 C 9,4 C 99 % 1015,5 hPa 0,0 l/m 0 min 0 min 98 W/m 6,4 km/h (2 Bft) 100,00 %
12.05.2023 07:54 12,9 C 12,8 C 9,4 C 99 % 1015,4 hPa 0,0 l/m 0 min 0 min 104 W/m 6,4 km/h (2 Bft) 100,00 %
12.05.2023 07:56 12,9 C 12,8 C 9,4 C 99 % 1015,4 hPa 0,0 l/m 0 min 0 min 111 W/m 9,7 km/h (2 Bft) 100,00 %
12.05.2023 07:58 12,9 C 12,8 C 9,4 C 99 % 1015,4 hPa 0,0 l/m 0 min 0 min 118 W/m 6,4 km/h (2 Bft) 100,00 %
12.05.2023 08:00 12,9 C 13,3 C 9,4 C 99 % 1015,4 hPa 0,0 l/m 0 min 0 min 132 W/m 6,4 km/h (2 Bft) 100,00 %
12.05.2023 08:02 12,9 C 13,3 C 9,4 C 99 % 1015,5 hPa 0,0 l/m 0 min 0 min 148 W/m 6,4 km/h (2 Bft) 100,00 %
12.05.2023 08:04 12,9 C 13,3 C 9,4 C 99 % 1015,5 hPa 0,0 l/m 0 min 0 min 144 W/m 9,7 km/h (2 Bft) 96,00 %
12.05.2023 08:06 13,0 C 13,3 C 9,4 C 99 % 1015,5 hPa 0,0 l/m 0 min 0 min 149 W/m 16,1 km/h (3 Bft) 100,00 %
12.05.2023 08:08 13,0 C 13,3 C 9,4 C 99 % 1015,5 hPa 0,0 l/m 2 min 0 min 180 W/m 9,7 km/h (2 Bft) 100,00 %
12.05.2023 08:10 13,1 C 13,9 C 9,4 C 100 % 1015,6 hPa 0,0 l/m 2 min 0 min 191 W/m 9,7 km/h (2 Bft) 100,00 %
12.05.2023 08:12 13,1 C 13,9 C 9,4 C 100 % 1015,6 hPa 0,0 l/m 2 min 0 min 190 W/m 16,1 km/h (3 Bft) 97,14 %
12.05.2023 08:14 13,1 C 13,9 C 9,4 C 100 % 1015,6 hPa 0,0 l/m 2 min 0 min 206 W/m 12,9 km/h (3 Bft) 97,87 %
12.05.2023 08:16 13,1 C 13,9 C 9,4 C 100 % 1015,6 hPa 0,0 l/m 2 min 0 min 208 W/m 9,7 km/h (2 Bft) 100,00 %
12.05.2023 08:20 13,1 C 14,4 C 9,4 C 99 % 1015,8 hPa 0,0 l/m 4 min 0 min 216 W/m 12,9 km/h (3 Bft) 100,00 %
12.05.2023 08:24 13,2 C 15,0 C 10,0 C 99 % 1015,8 hPa 0,0 l/m 4 min 0 min 239 W/m 6,4 km/h (2 Bft) 98,95 %
12.05.2023 08:25 13,2 C 15,0 C 10,0 C 99 % 1015,8 hPa 0,0 l/m 1 min 0 min 243 W/m 9,7 km/h (2 Bft) 100,00 %
12.05.2023 08:28 13,3 C 15,6 C 10,0 C 99 % 1015,8 hPa 0,0 l/m 3 min 0 min 271 W/m 3,2 km/h (1 Bft) 97,03 %
12.05.2023 08:30 13,4 C 16,1 C 10,0 C 100 % 1015,8 hPa 0,0 l/m 2 min 0 min 269 W/m 12,9 km/h (3 Bft) 97,87 %
12.05.2023 08:32 13,4 C 16,1 C 10,0 C 99 % 1015,9 hPa 0,0 l/m 2 min 0 min 285 W/m 9,7 km/h (2 Bft) 97,87 %
12.05.2023 08:34 13,5 C 16,7 C 10,0 C 99 % 1015,9 hPa 0,0 l/m 2 min 0 min 291 W/m 12,9 km/h (3 Bft) 95,74 %
12.05.2023 08:36 13,5 C 16,7 C 9,4 C 99 % 1015,9 hPa 0,0 l/m 2 min 0 min 232 W/m 12,9 km/h (3 Bft) 95,74 %
12.05.2023 08:38 13,5 C 16,1 C 10,0 C 99 % 1015,9 hPa 0,0 l/m 0 min 0 min 201 W/m 9,7 km/h (2 Bft) 95,74 %
12.05.2023 08:40 13,6 C 15,6 C 9,4 C 99 % 1015,9 hPa 0,0 l/m 0 min 0 min 165 W/m 9,7 km/h (2 Bft) 95,65 %
12.05.2023 08:42 13,6 C 15,0 C 9,4 C 99 % 1015,9 hPa 0,0 l/m 0 min 0 min 155 W/m 22,5 km/h (4 Bft) 95,74 %
12.05.2023 08:44 13,6 C 15,0 C 9,4 C 99 % 1015,9 hPa 0,0 l/m 0 min 0 min 175 W/m 9,7 km/h (2 Bft) 95,74 %
12.05.2023 08:46 13,5 C 15,0 C 9,4 C 99 % 1015,9 hPa 0,0 l/m 0 min 0 min 200 W/m 6,4 km/h (2 Bft) 93,62 %
12.05.2023 08:48 13,6 C 15,6 C 10,0 C 99 % 1015,9 hPa 0,0 l/m 0 min 0 min 207 W/m 6,4 km/h (2 Bft) 95,74 %
12.05.2023 08:50 13,6 C 15,6 C 10,0 C 99 % 1015,9 hPa 0,0 l/m 2 min 0 min 226 W/m 12,9 km/h (3 Bft) 95,74 %
12.05.2023 08:52 13,6 C 15,0 C 9,4 C 99 % 1016,0 hPa 0,0 l/m 0 min 0 min 195 W/m 6,4 km/h (2 Bft) 93,48 %
12.05.2023 08:54 13,6 C 15,0 C 10,0 C 99 % 1015,9 hPa 0,0 l/m 0 min 0 min 186 W/m 19,3 km/h (3 Bft) 93,62 %
12.05.2023 08:56 13,6 C 15,0 C 9,4 C 99 % 1015,9 hPa 0,0 l/m 0 min 0 min 183 W/m 16,1 km/h (3 Bft) 95,74 %
12.05.2023 08:58 13,6 C 15,0 C 9,4 C 98 % 1016,0 hPa 0,0 l/m 0 min 0 min 199 W/m 9,7 km/h (2 Bft) 93,62 %
12.05.2023 09:00 13,7 C 15,0 C 10,0 C 98 % 1016,1 hPa 0,0 l/m 0 min 0 min 204 W/m 6,4 km/h (2 Bft) 95,74 %
12.05.2023 09:02 13,7 C 15,0 C 10,0 C 98 % 1016,1 hPa 0,0 l/m 0 min 0 min 194 W/m 6,4 km/h (2 Bft) 91,49 %
12.05.2023 09:04 13,7 C 15,0 C 9,4 C 98 % 1016,1 hPa 0,0 l/m 0 min 0 min 199 W/m 16,1 km/h (3 Bft) 91,30 %
12.05.2023 09:06 13,8 C 15,0 C 9,4 C 98 % 1016,2 hPa 0,0 l/m 2 min 0 min 238 W/m 9,7 km/h (2 Bft) 89,36 %
12.05.2023 09:08 13,8 C 15,6 C 10,0 C 97 % 1016,2 hPa 0,0 l/m 2 min 0 min 272 W/m 3,2 km/h (1 Bft) 93,62 %
12.05.2023 09:10 13,9 C 16,1 C 10,0 C 97 % 1016,2 hPa 0,0 l/m 2 min 2 min 329 W/m 6,4 km/h (2 Bft) 93,62 %
12.05.2023 09:12 14,1 C 17,2 C 10,0 C 97 % 1016,2 hPa 0,0 l/m 2 min 0 min 347 W/m 9,7 km/h (2 Bft) 91,49 %
12.05.2023 09:14 14,2 C 17,8 C 10,0 C 97 % 1016,2 hPa 0,0 l/m 2 min 0 min 343 W/m 16,1 km/h (3 Bft) 93,62 %
12.05.2023 09:16 14,3 C 18,3 C 10,6 C 97 % 1016,2 hPa 0,0 l/m 2 min 0 min 359 W/m 12,9 km/h (3 Bft) 93,48 %
12.05.2023 09:18 14,3 C 18,3 C 10,6 C 97 % 1016,2 hPa 0,0 l/m 2 min 0 min 379 W/m 12,9 km/h (3 Bft) 95,74 %
12.05.2023 09:20 14,4 C 18,9 C 10,6 C 96 % 1016,2 hPa 0,0 l/m 2 min 0 min 383 W/m 16,1 km/h (3 Bft) 93,62 %
12.05.2023 09:22 14,6 C 18,9 C 10,6 C 96 % 1016,2 hPa 0,0 l/m 2 min 0 min 376 W/m 12,9 km/h (3 Bft) 95,74 %
12.05.2023 09:24 14,7 C 19,4 C 10,6 C 96 % 1016,2 hPa 0,0 l/m 2 min 0 min 391 W/m 9,7 km/h (2 Bft) 97,87 %
12.05.2023 09:26 14,8 C 19,4 C 10,6 C 96 % 1016,2 hPa 0,0 l/m 2 min 0 min 421 W/m 16,1 km/h (3 Bft) 97,83 %
12.05.2023 09:28 14,9 C 20,0 C 11,1 C 95 % 1016,3 hPa 0,0 l/m 2 min 0 min 444 W/m 12,9 km/h (3 Bft) 97,87 %
12.05.2023 09:30 15,0 C 20,6 C 11,1 C 95 % 1016,2 hPa 0,0 l/m 2 min 0 min 458 W/m 9,7 km/h (2 Bft) 97,87 %
12.05.2023 09:32 15,2 C 20,6 C 11,1 C 95 % 1016,3 hPa 0,0 l/m 2 min 0 min 481 W/m 12,9 km/h (3 Bft) 97,87 %
12.05.2023 09:34 15,2 C 20,6 C 11,1 C 94 % 1016,3 hPa 0,0 l/m 2 min 0 min 481 W/m 16,1 km/h (3 Bft) 97,87 %
12.05.2023 09:36 15,3 C 20,0 C 11,1 C 93 % 1016,3 hPa 0,0 l/m 2 min 0 min 463 W/m 9,7 km/h (2 Bft) 100,00 %
12.05.2023 09:38 15,3 C 20,0 C 11,1 C 92 % 1016,3 hPa 0,0 l/m 2 min 0 min 438 W/m 9,7 km/h (2 Bft) 100,00 %
12.05.2023 09:40 15,4 C 20,0 C 11,1 C 92 % 1016,3 hPa 0,0 l/m 2 min 0 min 437 W/m 12,9 km/h (3 Bft) 100,00 %
12.05.2023 09:42 15,6 C 20,0 C 11,1 C 91 % 1016,3 hPa 0,0 l/m 2 min 0 min 447 W/m 25,7 km/h (4 Bft) 100,00 %
12.05.2023 09:44 15,6 C 19,4 C 11,1 C 90 % 1016,3 hPa 0,0 l/m 2 min 0 min 448 W/m 16,1 km/h (3 Bft) 100,00 %
12.05.2023 09:46 15,7 C 19,4 C 11,1 C 90 % 1016,4 hPa 0,0 l/m 2 min 0 min 444 W/m 12,9 km/h (3 Bft) 100,00 %
12.05.2023 09:48 15,7 C 20,0 C 11,7 C 89 % 1016,4 hPa 0,0 l/m 2 min 0 min 444 W/m 12,9 km/h (3 Bft) 100,00 %
12.05.2023 09:50 15,8 C 20,0 C 12,8 C 89 % 1016,4 hPa 0,0 l/m 2 min 0 min 453 W/m 16,1 km/h (3 Bft) 100,00 %
12.05.2023 09:52 15,9 C 20,6 C 12,8 C 89 % 1016,4 hPa 0,0 l/m 2 min 0 min 476 W/m 19,3 km/h (3 Bft) 100,00 %
12.05.2023 09:54 15,9 C 20,6 C 13,3 C 88 % 1016,4 hPa 0,0 l/m 2 min 0 min 502 W/m 16,1 km/h (3 Bft) 100,00 %
12.05.2023 09:56 16,0 C 20,0 C 13,9 C 88 % 1016,4 hPa 0,0 l/m 2 min 0 min 478 W/m 12,9 km/h (3 Bft) 100,00 %
12.05.2023 09:58 16,1 C 20,0 C 13,3 C 88 % 1016,4 hPa 0,0 l/m 2 min 0 min 440 W/m 16,1 km/h (3 Bft) 100,00 %
12.05.2023 10:00 16,1 C 20,0 C 13,9 C 87 % 1016,4 hPa 0,0 l/m 2 min 0 min 500 W/m 16,1 km/h (3 Bft) 100,00 %
12.05.2023 10:02 16,1 C 20,0 C 13,9 C 87 % 1016,4 hPa 0,0 l/m 2 min 0 min 537 W/m 12,9 km/h (3 Bft) 100,00 %
12.05.2023 10:04 16,2 C 20,0 C 13,3 C 86 % 1016,5 hPa 0,0 l/m 2 min 0 min 502 W/m 19,3 km/h (3 Bft) 100,00 %
12.05.2023 10:06 16,2 C 20,0 C 13,3 C 86 % 1016,4 hPa 0,0 l/m 2 min 0 min 465 W/m 12,9 km/h (3 Bft) 100,00 %
12.05.2023 10:08 16,2 C 20,0 C 13,3 C 86 % 1016,5 hPa 0,0 l/m 2 min 0 min 377 W/m 16,1 km/h (3 Bft) 100,00 %
12.05.2023 10:10 16,2 C 18,9 C 12,8 C 85 % 1016,5 hPa 0,0 l/m 2 min 0 min 312 W/m 16,1 km/h (3 Bft) 100,00 %
12.05.2023 10:12 16,2 C 18,3 C 12,8 C 85 % 1016,5 hPa 0,0 l/m 0 min 0 min 275 W/m 9,7 km/h (2 Bft) 100,00 %
12.05.2023 10:14 16,2 C 18,3 C 12,8 C 85 % 1016,5 hPa 0,0 l/m 0 min 0 min 258 W/m 12,9 km/h (3 Bft) 100,00 %
12.05.2023 10:16 16,1 C 17,8 C 12,8 C 85 % 1016,6 hPa 0,0 l/m 0 min 0 min 276 W/m 12,9 km/h (3 Bft) 97,87 %
12.05.2023 10:18 16,1 C 17,8 C 12,8 C 85 % 1016,6 hPa 0,0 l/m 2 min 0 min 312 W/m 12,9 km/h (3 Bft) 100,00 %
12.05.2023 10:20 16,0 C 17,8 C 12,8 C 85 % 1016,5 hPa 0,0 l/m 2 min 0 min 472 W/m 12,9 km/h (3 Bft) 100,00 %
12.05.2023 10:22 16,0 C 18,3 C 13,3 C 85 % 1016,5 hPa 0,0 l/m 2 min 0 min 604 W/m 12,9 km/h (3 Bft) 100,00 %
12.05.2023 10:24 16,1 C 18,9 C 13,3 C 85 % 1016,5 hPa 0,0 l/m 2 min 0 min 636 W/m 16,1 km/h (3 Bft) 100,00 %
12.05.2023 10:26 16,1 C 18,9 C 13,3 C 84 % 1016,6 hPa 0,0 l/m 2 min 0 min 434 W/m 12,9 km/h (3 Bft) 100,00 %
12.05.2023 10:28 16,1 C 18,9 C 13,3 C 84 % 1016,6 hPa 0,0 l/m 2 min 0 min 503 W/m 16,1 km/h (3 Bft) 97,87 %
12.05.2023 10:30 16,2 C 18,9 C 13,9 C 84 % 1016,6 hPa 0,0 l/m 2 min 0 min 523 W/m 12,9 km/h (3 Bft) 100,00 %
12.05.2023 10:32 16,3 C 18,9 C 13,9 C 84 % 1016,6 hPa 0,0 l/m 2 min 0 min 649 W/m 16,1 km/h (3 Bft) 100,00 %
12.05.2023 10:34 16,4 C 18,9 C 13,9 C 83 % 1016,6 hPa 0,0 l/m 2 min 0 min 564 W/m 16,1 km/h (3 Bft) 100,00 %
12.05.2023 10:36 16,4 C 18,9 C 13,9 C 83 % 1016,7 hPa 0,0 l/m 2 min 0 min 437 W/m 19,3 km/h (3 Bft) 100,00 %
12.05.2023 10:38 16,4 C 18,3 C 13,3 C 83 % 1016,7 hPa 0,0 l/m 2 min 0 min 346 W/m 12,9 km/h (3 Bft) 100,00 %
12.05.2023 10:40 16,4 C 17,8 C 13,3 C 83 % 1016,7 hPa 0,0 l/m 0 min 0 min 310 W/m 19,3 km/h (3 Bft) 100,00 %
12.05.2023 10:42 16,4 C 17,8 C 13,3 C 83 % 1016,7 hPa 0,0 l/m 0 min 0 min 276 W/m 22,5 km/h (4 Bft) 97,87 %
12.05.2023 10:44 16,4 C 17,2 C 13,3 C 82 % 1016,8 hPa 0,0 l/m 0 min 0 min 257 W/m 22,5 km/h (4 Bft) 100,00 %
12.05.2023 10:46 16,4 C 17,2 C 12,8 C 83 % 1016,7 hPa 0,0 l/m 0 min 0 min 263 W/m 12,9 km/h (3 Bft) 97,87 %
12.05.2023 10:48 16,3 C 16,7 C 12,8 C 82 % 1016,8 hPa 0,0 l/m 0 min 0 min 266 W/m 12,9 km/h (3 Bft) 100,00 %
12.05.2023 10:50 16,3 C 16,7 C 12,8 C 82 % 1016,8 hPa 0,0 l/m 0 min 0 min 270 W/m 12,9 km/h (3 Bft) 100,00 %
12.05.2023 10:52 16,2 C 16,7 C 12,8 C 83 % 1016,8 hPa 0,0 l/m 0 min 0 min 268 W/m 19,3 km/h (3 Bft) 97,83 %
12.05.2023 10:54 16,2 C 16,7 C 12,8 C 82 % 1016,8 hPa 0,0 l/m 0 min 0 min 274 W/m 16,1 km/h (3 Bft) 100,00 %
12.05.2023 10:56 16,1 C 16,7 C 12,8 C 82 % 1016,9 hPa 0,0 l/m 0 min 0 min 277 W/m 19,3 km/h (3 Bft) 97,87 %
12.05.2023 10:58 16,1 C 16,7 C 12,8 C 83 % 1016,9 hPa 0,0 l/m 0 min 0 min 285 W/m 16,1 km/h (3 Bft) 95,74 %
12.05.2023 11:00 16,1 C 16,7 C 12,8 C 83 % 1016,9 hPa 0,0 l/m 0 min 0 min 282 W/m 16,1 km/h (3 Bft) 97,87 %
12.05.2023 11:02 16,1 C 16,7 C 12,8 C 83 % 1016,9 hPa 0,0 l/m 0 min 0 min 283 W/m 16,1 km/h (3 Bft) 97,83 %
12.05.2023 11:04 16,1 C 16,7 C 12,8 C 83 % 1016,9 hPa 0,0 l/m 0 min 0 min 290 W/m 16,1 km/h (3 Bft) 97,87 %
12.05.2023 11:06 16,0 C 16,7 C 12,8 C 83 % 1016,9 hPa 0,0 l/m 0 min 0 min 306 W/m 9,7 km/h (2 Bft) 98,31 %
12.05.2023 11:08 16,1 C 16,7 C 12,8 C 83 % 1016,9 hPa 0,0 l/m 0 min 0 min 317 W/m 12,9 km/h (3 Bft) 97,87 %
12.05.2023 11:10 16,1 C 16,7 C 12,8 C 83 % 1017,0 hPa 0,0 l/m 0 min 0 min 323 W/m 16,1 km/h (3 Bft) 97,14 %
12.05.2023 11:12 16,1 C 16,7 C 12,8 C 82 % 1017,0 hPa 0,0 l/m 0 min 0 min 325 W/m 16,1 km/h (3 Bft) 95,74 %
12.05.2023 11:14 16,1 C 16,7 C 12,8 C 83 % 1017,1 hPa 0,0 l/m 0 min 0 min 333 W/m 16,1 km/h (3 Bft) 97,83 %
12.05.2023 11:16 16,1 C 16,7 C 12,8 C 82 % 1017,1 hPa 0,0 l/m 0 min 0 min 345 W/m 16,1 km/h (3 Bft) 94,34 %
12.05.2023 11:18 16,1 C 17,2 C 12,8 C 82 % 1017,0 hPa 0,0 l/m 2 min 0 min 381 W/m 12,9 km/h (3 Bft) 100,00 %
12.05.2023 11:20 16,2 C 17,2 C 13,3 C 82 % 1017,0 hPa 0,0 l/m 2 min 0 min 486 W/m 16,1 km/h (3 Bft) 95,74 %
12.05.2023 11:22 16,3 C 18,3 C 13,3 C 82 % 1017,1 hPa 0,0 l/m 2 min 0 min 503 W/m 9,7 km/h (2 Bft) 95,74 %
12.05.2023 11:24 16,4 C 18,3 C 13,3 C 82 % 1017,0 hPa 0,0 l/m 2 min 0 min 472 W/m 12,9 km/h (3 Bft) 95,65 %
12.05.2023 11:26 16,4 C 18,3 C 13,3 C 81 % 1017,0 hPa 0,0 l/m 2 min 0 min 460 W/m 19,3 km/h (3 Bft) 93,62 %
12.05.2023 11:28 16,6 C 18,9 C 13,9 C 81 % 1017,1 hPa 0,0 l/m 2 min 0 min 438 W/m 16,1 km/h (3 Bft) 93,62 %
12.05.2023 11:30 16,6 C 18,3 C 13,9 C 80 % 1017,1 hPa 0,0 l/m 2 min 0 min 467 W/m 16,1 km/h (3 Bft) 95,74 %
12.05.2023 11:32 16,7 C 18,9 C 13,9 C 80 % 1017,0 hPa 0,0 l/m 2 min 0 min 603 W/m 16,1 km/h (3 Bft) 97,87 %
12.05.2023 11:34 16,8 C 20,0 C 13,9 C 81 % 1017,1 hPa 0,0 l/m 2 min 0 min 660 W/m 12,9 km/h (3 Bft) 97,87 %
12.05.2023 11:36 17,0 C 21,1 C 14,4 C 81 % 1017,1 hPa 0,0 l/m 2 min 0 min 827 W/m 16,1 km/h (3 Bft) 95,65 %
12.05.2023 11:38 17,2 C 21,1 C 15,0 C 81 % 1017,0 hPa 0,0 l/m 2 min 0 min 819 W/m 16,1 km/h (3 Bft) 98,00 %
12.05.2023 11:40 17,3 C 21,7 C 15,0 C 80 % 1017,1 hPa 0,0 l/m 2 min 0 min 783 W/m 9,7 km/h (2 Bft) 95,74 %
12.05.2023 11:42 17,5 C 22,2 C 15,0 C 80 % 1017,1 hPa 0,0 l/m 2 min 0 min 771 W/m 12,9 km/h (3 Bft) 97,87 %
12.05.2023 11:44 17,7 C 23,3 C 15,6 C 80 % 1017,0 hPa 0,0 l/m 2 min 0 min 854 W/m 16,1 km/h (3 Bft) 97,87 %
12.05.2023 11:46 17,8 C 23,3 C 15,6 C 79 % 1017,1 hPa 0,0 l/m 2 min 0 min 822 W/m 12,9 km/h (3 Bft) 97,83 %
12.05.2023 11:48 18,0 C 23,9 C 15,6 C 79 % 1017,1 hPa 0,0 l/m 2 min 0 min 802 W/m 12,9 km/h (3 Bft) 97,87 %
12.05.2023 11:50 18,1 C 23,3 C 16,1 C 78 % 1017,1 hPa 0,0 l/m 2 min 0 min 822 W/m 12,9 km/h (3 Bft) 93,62 %
12.05.2023 11:52 18,2 C 23,9 C 16,1 C 77 % 1017,2 hPa 0,0 l/m 2 min 0 min 893 W/m 16,1 km/h (3 Bft) 95,74 %
12.05.2023 11:54 18,3 C 23,9 C 16,1 C 78 % 1017,1 hPa 0,0 l/m 2 min 0 min 843 W/m 16,1 km/h (3 Bft) 95,74 %
12.05.2023 11:56 18,4 C 23,3 C 16,1 C 76 % 1017,1 hPa 0,0 l/m 2 min 0 min 809 W/m 12,9 km/h (3 Bft) 93,62 %
12.05.2023 11:58 18,6 C 22,8 C 16,1 C 76 % 1017,1 hPa 0,0 l/m 2 min 0 min 761 W/m 16,1 km/h (3 Bft) 93,48 %
12.05.2023 12:00 18,7 C 22,8 C 16,7 C 76 % 1017,3 hPa 0,0 l/m 2 min 0 min 672 W/m 9,7 km/h (2 Bft) 93,62 %
12.05.2023 12:02 18,8 C 23,3 C 16,7 C 76 % 1017,2 hPa 0,0 l/m 2 min 0 min 893 W/m 12,9 km/h (3 Bft) 95,74 %
12.05.2023 12:04 18,8 C 22,2 C 16,1 C 74 % 1017,2 hPa 0,0 l/m 2 min 0 min 529 W/m 19,3 km/h (3 Bft) 95,83 %
12.05.2023 12:08 18,8 C 21,1 C 16,1 C 74 % 1017,2 hPa 0,0 l/m 4 min 0 min 494 W/m 16,1 km/h (3 Bft) 95,83 %
12.05.2023 12:10 18,8 C 21,1 C 16,1 C 75 % 1017,2 hPa 0,0 l/m 2 min 0 min 514 W/m 16,1 km/h (3 Bft) 95,38 %
12.05.2023 12:12 18,8 C 22,8 C 17,2 C 74 % 1017,2 hPa 0,0 l/m 2 min 0 min 529 W/m 12,9 km/h (3 Bft) 97,83 %
12.05.2023 12:16 19,1 C 24,4 C 18,3 C 73 % 1017,1 hPa 0,0 l/m 4 min 0 min 901 W/m 22,5 km/h (4 Bft) 97,87 %
12.05.2023 12:18 19,2 C 25,6 C 19,4 C 72 % 1017,2 hPa 0,0 l/m 2 min 0 min 997 W/m 12,9 km/h (3 Bft) 95,74 %
12.05.2023 12:20 19,3 C 25,6 C 20,0 C 73 % 1017,2 hPa 0,0 l/m 2 min 0 min 1082 W/m 19,3 km/h (3 Bft) 95,74 %
12.05.2023 12:22 19,4 C 24,4 C 20,0 C 71 % 1017,2 hPa 0,0 l/m 2 min 0 min 1082 W/m 22,5 km/h (4 Bft) 97,87 %
12.05.2023 12:24 19,6 C 23,9 C 19,4 C 71 % 1017,2 hPa 0,0 l/m 2 min 0 min 723 W/m 16,1 km/h (3 Bft) 97,83 %
12.05.2023 12:26 19,6 C 24,4 C 19,4 C 70 % 1017,2 hPa 0,0 l/m 2 min 0 min 813 W/m 16,1 km/h (3 Bft) 95,74 %
12.05.2023 12:28 19,6 C 23,3 C 18,9 C 70 % 1017,1 hPa 0,0 l/m 2 min 0 min 731 W/m 22,5 km/h (4 Bft) 97,87 %
12.05.2023 12:30 19,6 C 22,8 C 18,3 C 71 % 1017,2 hPa 0,0 l/m 2 min 0 min 628 W/m 12,9 km/h (3 Bft) 97,87 %
12.05.2023 12:32 19,6 C 22,8 C 18,3 C 71 % 1017,2 hPa 0,0 l/m 2 min 0 min 522 W/m 9,7 km/h (2 Bft) 97,87 %
12.05.2023 12:34 19,6 C 21,7 C 17,2 C 71 % 1017,2 hPa 0,0 l/m 2 min 0 min 428 W/m 12,9 km/h (3 Bft) 97,87 %
12.05.2023 12:36 19,6 C 22,2 C 16,7 C 70 % 1017,2 hPa 0,0 l/m 2 min 0 min 438 W/m 9,7 km/h (2 Bft) 95,65 %
12.05.2023 12:38 19,5 C 21,7 C 16,7 C 71 % 1017,1 hPa 0,0 l/m 2 min 0 min 441 W/m 9,7 km/h (2 Bft) 97,87 %
12.05.2023 12:40 19,4 C 21,1 C 16,7 C 70 % 1017,2 hPa 0,0 l/m 2 min 0 min 457 W/m 6,4 km/h (2 Bft) 97,87 %
12.05.2023 12:42 19,4 C 21,1 C 16,7 C 70 % 1017,2 hPa 0,0 l/m 2 min 0 min 499 W/m 12,9 km/h (3 Bft) 97,87 %
12.05.2023 12:44 19,4 C 21,7 C 16,7 C 71 % 1017,2 hPa 0,0 l/m 2 min 0 min 520 W/m 6,4 km/h (2 Bft) 97,87 %
12.05.2023 12:46 19,4 C 21,7 C 16,7 C 71 % 1017,2 hPa 0,0 l/m 2 min 0 min 554 W/m 6,4 km/h (2 Bft) 97,87 %
12.05.2023 12:48 19,5 C 21,7 C 16,7 C 73 % 1017,2 hPa 0,0 l/m 2 min 0 min 561 W/m 16,1 km/h (3 Bft) 97,83 %
12.05.2023 12:50 19,6 C 21,7 C 16,1 C 75 % 1017,2 hPa 0,0 l/m 2 min 0 min 505 W/m 12,9 km/h (3 Bft) 95,74 %
12.05.2023 12:52 19,6 C 21,7 C 16,1 C 75 % 1017,2 hPa 0,0 l/m 2 min 0 min 481 W/m 6,4 km/h (2 Bft) 97,87 %
12.05.2023 12:54 19,6 C 21,7 C 15,6 C 76 % 1017,2 hPa 0,0 l/m 2 min 0 min 428 W/m 9,7 km/h (2 Bft) 97,87 %
12.05.2023 12:56 19,5 C 21,7 C 15,6 C 76 % 1017,2 hPa 0,0 l/m 0 min 0 min 390 W/m 9,7 km/h (2 Bft) 97,87 %
12.05.2023 12:58 19,4 C 21,7 C 15,6 C 76 % 1017,1 hPa 0,0 l/m 0 min 0 min 372 W/m 12,9 km/h (3 Bft) 97,87 %
12.05.2023 13:00 19,3 C 21,1 C 15,0 C 75 % 1017,2 hPa 0,0 l/m 0 min 0 min 370 W/m 9,7 km/h (2 Bft) 97,83 %
12.05.2023 13:02 19,2 C 21,7 C 15,0 C 76 % 1017,2 hPa 0,0 l/m 2 min 0 min 418 W/m 6,4 km/h (2 Bft) 97,87 %
12.05.2023 13:04 19,2 C 21,1 C 15,0 C 77 % 1017,2 hPa 0,0 l/m 2 min 0 min 444 W/m 6,4 km/h (2 Bft) 94,00 %
12.05.2023 13:06 19,2 C 20,6 C 15,0 C 77 % 1017,2 hPa 0,0 l/m 0 min 0 min 316 W/m 9,7 km/h (2 Bft) 98,31 %
12.05.2023 13:08 19,1 C 20,6 C 15,0 C 77 % 1017,2 hPa 0,0 l/m 0 min 0 min 329 W/m 12,9 km/h (3 Bft) 97,14 %
12.05.2023 13:10 19,0 C 20,6 C 15,0 C 77 % 1017,2 hPa 0,0 l/m 2 min 0 min 412 W/m 16,1 km/h (3 Bft) 97,83 %
12.05.2023 13:12 18,9 C 20,0 C 15,0 C 77 % 1017,2 hPa 0,0 l/m 2 min 0 min 454 W/m 12,9 km/h (3 Bft) 97,87 %
12.05.2023 13:14 18,8 C 20,6 C 15,0 C 77 % 1017,2 hPa 0,0 l/m 0 min 0 min 392 W/m 9,7 km/h (2 Bft) 95,74 %
12.05.2023 13:16 18,8 C 21,1 C 15,6 C 77 % 1017,2 hPa 0,0 l/m 2 min 0 min 431 W/m 9,7 km/h (2 Bft) 97,87 %
12.05.2023 13:18 18,9 C 21,1 C 15,6 C 77 % 1017,2 hPa 0,0 l/m 2 min 0 min 503 W/m 9,7 km/h (2 Bft) 97,87 %
12.05.2023 13:20 18,9 C 20,0 C 15,0 C 76 % 1017,2 hPa 0,0 l/m 0 min 0 min 387 W/m 12,9 km/h (3 Bft) 97,87 %
12.05.2023 13:22 18,9 C 20,6 C 15,6 C 77 % 1017,2 hPa 0,0 l/m 0 min 0 min 360 W/m 9,7 km/h (2 Bft) 97,83 %
12.05.2023 13:24 18,9 C 20,0 C 15,0 C 77 % 1017,3 hPa 0,0 l/m 0 min 0 min 403 W/m 16,1 km/h (3 Bft) 95,74 %
12.05.2023 13:26 18,8 C 20,0 C 15,0 C 76 % 1017,2 hPa 0,0 l/m 0 min 0 min 391 W/m 19,3 km/h (3 Bft) 97,87 %
12.05.2023 13:28 18,8 C 20,6 C 15,6 C 77 % 1017,2 hPa 0,0 l/m 2 min 0 min 450 W/m 12,9 km/h (3 Bft) 97,87 %
12.05.2023 13:30 18,8 C 20,6 C 15,6 C 77 % 1017,3 hPa 0,0 l/m 2 min 0 min 475 W/m 16,1 km/h (3 Bft) 95,74 %
12.05.2023 13:32 18,8 C 21,1 C 15,6 C 77 % 1017,3 hPa 0,0 l/m 2 min 0 min 547 W/m 9,7 km/h (2 Bft) 97,87 %
12.05.2023 13:34 18,8 C 21,1 C 15,6 C 77 % 1017,4 hPa 0,0 l/m 2 min 0 min 552 W/m 12,9 km/h (3 Bft) 97,83 %
12.05.2023 13:36 18,8 C 20,0 C 15,6 C 77 % 1017,3 hPa 0,0 l/m 0 min 0 min 323 W/m 16,1 km/h (3 Bft) 100,00 %
12.05.2023 13:38 18,8 C 20,0 C 15,0 C 76 % 1017,3 hPa 0,0 l/m 0 min 0 min 228 W/m 3,2 km/h (1 Bft) 97,87 %
12.05.2023 13:40 18,7 C 19,4 C 15,0 C 76 % 1017,3 hPa 0,0 l/m 0 min 0 min 205 W/m 12,9 km/h (3 Bft) 100,00 %
12.05.2023 13:42 18,7 C 18,9 C 14,4 C 77 % 1017,3 hPa 0,0 l/m 0 min 0 min 173 W/m 6,4 km/h (2 Bft) 97,87 %
12.05.2023 13:44 18,5 C 18,3 C 13,9 C 76 % 1017,3 hPa 0,0 l/m 0 min 0 min 128 W/m 9,7 km/h (2 Bft) 100,00 %
12.05.2023 13:46 18,4 C 17,8 C 13,9 C 76 % 1017,2 hPa 0,0 l/m 0 min 0 min 114 W/m 3,2 km/h (1 Bft) 100,00 %
12.05.2023 13:48 18,3 C 17,8 C 13,9 C 77 % 1017,3 hPa 0,0 l/m 0 min 0 min 121 W/m 3,2 km/h (1 Bft) 100,00 %
12.05.2023 13:50 18,2 C 17,8 C 13,9 C 77 % 1017,3 hPa 0,0 l/m 0 min 0 min 131 W/m 6,4 km/h (2 Bft) 100,00 %
12.05.2023 13:52 18,1 C 17,8 C 13,9 C 77 % 1017,3 hPa 0,0 l/m 0 min 0 min 144 W/m 16,1 km/h (3 Bft) 100,00 %
12.05.2023 13:54 18,0 C 17,8 C 13,9 C 76 % 1017,4 hPa 0,0 l/m 0 min 0 min 167 W/m 9,7 km/h (2 Bft) 100,00 %
12.05.2023 13:56 17,9 C 18,3 C 13,9 C 77 % 1017,5 hPa 0,0 l/m 0 min 0 min 188 W/m 12,9 km/h (3 Bft) 100,00 %
12.05.2023 13:58 17,9 C 18,3 C 13,9 C 77 % 1017,4 hPa 0,0 l/m 0 min 0 min 222 W/m 9,7 km/h (2 Bft) 97,87 %
12.05.2023 14:00 17,9 C 18,3 C 13,9 C 77 % 1017,5 hPa 0,0 l/m 0 min 0 min 258 W/m 19,3 km/h (3 Bft) 95,74 %
12.05.2023 14:02 17,9 C 18,9 C 13,9 C 77 % 1017,5 hPa 0,0 l/m 0 min 0 min 302 W/m 12,9 km/h (3 Bft) 97,87 %
12.05.2023 14:04 17,9 C 18,9 C 14,4 C 77 % 1017,5 hPa 0,0 l/m 0 min 0 min 337 W/m 12,9 km/h (3 Bft) 97,92 %
12.05.2023 14:06 18,1 C 19,4 C 14,4 C 77 % 1017,5 hPa 0,0 l/m 0 min 0 min 357 W/m 16,1 km/h (3 Bft) 98,31 %
12.05.2023 14:08 18,1 C 19,4 C 14,4 C 77 % 1017,5 hPa 0,0 l/m 0 min 0 min 382 W/m 9,7 km/h (2 Bft) 97,14 %
12.05.2023 14:10 18,2 C 20,0 C 15,0 C 77 % 1017,5 hPa 0,0 l/m 2 min 0 min 420 W/m 16,1 km/h (3 Bft) 97,83 %
12.05.2023 14:12 18,3 C 21,7 C 15,0 C 77 % 1017,5 hPa 0,0 l/m 2 min 0 min 427 W/m 12,9 km/h (3 Bft) 97,87 %
12.05.2023 14:14 18,5 C 22,8 C 15,6 C 76 % 1017,5 hPa 0,0 l/m 2 min 0 min 821 W/m 12,9 km/h (3 Bft) 97,87 %
12.05.2023 14:16 18,7 C 23,3 C 15,6 C 77 % 1017,4 hPa 0,0 l/m 2 min 0 min 586 W/m 9,7 km/h (2 Bft) 97,87 %
12.05.2023 14:18 18,9 C 23,3 C 16,1 C 76 % 1017,5 hPa 0,0 l/m 2 min 0 min 591 W/m 12,9 km/h (3 Bft) 95,74 %
12.05.2023 14:20 19,0 C 22,2 C 16,1 C 75 % 1017,5 hPa 0,0 l/m 2 min 0 min 491 W/m 16,1 km/h (3 Bft) 97,87 %
12.05.2023 14:22 19,2 C 21,7 C 15,6 C 74 % 1017,5 hPa 0,0 l/m 0 min 0 min 366 W/m 16,1 km/h (3 Bft) 97,83 %
12.05.2023 14:24 19,2 C 21,7 C 15,6 C 74 % 1017,5 hPa 0,0 l/m 0 min 0 min 364 W/m 12,9 km/h (3 Bft) 97,87 %
12.05.2023 14:26 19,3 C 22,2 C 15,6 C 75 % 1017,5 hPa 0,0 l/m 0 min 0 min 396 W/m 12,9 km/h (3 Bft) 97,87 %
12.05.2023 14:28 19,3 C 22,2 C 15,6 C 73 % 1017,6 hPa 0,0 l/m 2 min 0 min 404 W/m 16,1 km/h (3 Bft) 97,87 %
12.05.2023 14:30 19,3 C 21,7 C 15,6 C 73 % 1017,5 hPa 0,0 l/m 0 min 0 min 364 W/m 12,9 km/h (3 Bft) 95,74 %
12.05.2023 14:32 19,3 C 21,7 C 15,6 C 72 % 1017,5 hPa 0,0 l/m 2 min 0 min 397 W/m 16,1 km/h (3 Bft) 97,87 %
12.05.2023 14:34 19,3 C 21,1 C 15,6 C 72 % 1017,5 hPa 0,0 l/m 0 min 0 min 384 W/m 19,3 km/h (3 Bft) 97,83 %
12.05.2023 14:36 19,2 C 21,1 C 15,6 C 72 % 1017,5 hPa 0,0 l/m 2 min 0 min 404 W/m 12,9 km/h (3 Bft) 95,74 %
12.05.2023 14:38 19,3 C 21,7 C 15,6 C 72 % 1017,5 hPa 0,0 l/m 2 min 0 min 494 W/m 12,9 km/h (3 Bft) 97,87 %
12.05.2023 14:40 19,3 C 22,2 C 16,1 C 73 % 1017,5 hPa 0,0 l/m 2 min 0 min 494 W/m 9,7 km/h (2 Bft) 100,00 %
12.05.2023 14:42 19,4 C 22,2 C 16,1 C 72 % 1017,4 hPa 0,0 l/m 2 min 0 min 499 W/m 19,3 km/h (3 Bft) 100,00 %
12.05.2023 14:44 19,4 C 22,2 C 16,1 C 73 % 1017,5 hPa 0,0 l/m 2 min 0 min 637 W/m 16,1 km/h (3 Bft) 100,00 %
12.05.2023 14:46 19,5 C 22,2 C 16,1 C 71 % 1017,5 hPa 0,0 l/m 2 min 0 min 563 W/m 25,7 km/h (4 Bft) 97,83 %
12.05.2023 14:48 19,6 C 22,2 C 16,1 C 72 % 1017,5 hPa 0,0 l/m 2 min 0 min 535 W/m 19,3 km/h (3 Bft) 97,87 %
12.05.2023 14:50 19,6 C 21,7 C 16,1 C 72 % 1017,5 hPa 0,0 l/m 2 min 0 min 447 W/m 9,7 km/h (2 Bft) 97,87 %
12.05.2023 14:52 19,7 C 21,7 C 16,1 C 72 % 1017,5 hPa 0,0 l/m 2 min 0 min 416 W/m 19,3 km/h (3 Bft) 97,87 %
12.05.2023 14:54 19,7 C 21,1 C 16,1 C 72 % 1017,5 hPa 0,0 l/m 2 min 0 min 454 W/m 12,9 km/h (3 Bft) 100,00 %
12.05.2023 14:56 19,7 C 21,1 C 16,1 C 71 % 1017,5 hPa 0,0 l/m 2 min 0 min 389 W/m 12,9 km/h (3 Bft) 100,00 %
12.05.2023 14:58 19,7 C 21,1 C 16,1 C 71 % 1017,5 hPa 0,0 l/m 0 min 0 min 373 W/m 12,9 km/h (3 Bft) 100,00 %
12.05.2023 15:00 19,6 C 20,6 C 15,6 C 72 % 1017,6 hPa 0,0 l/m 0 min 0 min 361 W/m 12,9 km/h (3 Bft) 100,00 %
12.05.2023 15:02 19,6 C 20,6 C 15,6 C 71 % 1017,5 hPa 0,0 l/m 0 min 0 min 352 W/m 22,5 km/h (4 Bft) 100,00 %
12.05.2023 15:04 19,6 C 20,0 C 15,6 C 71 % 1017,6 hPa 0,0 l/m 0 min 0 min 324 W/m 19,3 km/h (3 Bft) 97,87 %
12.05.2023 15:06 19,4 C 20,0 C 15,6 C 71 % 1017,6 hPa 0,0 l/m 0 min 0 min 321 W/m 16,1 km/h (3 Bft) 96,55 %
12.05.2023 15:08 19,4 C 20,0 C 15,6 C 71 % 1017,6 hPa 0,0 l/m 0 min 0 min 341 W/m 16,1 km/h (3 Bft) 97,22 %
12.05.2023 15:10 19,4 C 20,6 C 15,6 C 72 % 1017,6 hPa 0,0 l/m 0 min 0 min 365 W/m 16,1 km/h (3 Bft) 97,83 %
12.05.2023 15:12 19,4 C 20,0 C 15,6 C 72 % 1017,6 hPa 0,0 l/m 2 min 0 min 398 W/m 16,1 km/h (3 Bft) 95,74 %
12.05.2023 15:14 19,4 C 21,1 C 15,6 C 72 % 1017,5 hPa 0,0 l/m 2 min 0 min 475 W/m 22,5 km/h (4 Bft) 97,87 %
12.05.2023 15:16 19,5 C 22,8 C 16,1 C 73 % 1017,6 hPa 0,0 l/m 2 min 0 min 706 W/m 9,7 km/h (2 Bft) 97,87 %
12.05.2023 15:18 19,6 C 22,2 C 16,1 C 73 % 1017,5 hPa 0,0 l/m 2 min 0 min 683 W/m 9,7 km/h (2 Bft) 91,49 %
12.05.2023 15:20 19,8 C 22,2 C 16,1 C 72 % 1017,6 hPa 0,0 l/m 2 min 0 min 471 W/m 16,1 km/h (3 Bft) 97,87 %
12.05.2023 15:22 19,8 C 22,2 C 16,1 C 72 % 1017,6 hPa 0,0 l/m 2 min 0 min 414 W/m 16,1 km/h (3 Bft) 95,65 %
12.05.2023 15:24 19,8 C 21,1 C 16,1 C 71 % 1017,6 hPa 0,0 l/m 2 min 0 min 378 W/m 19,3 km/h (3 Bft) 97,87 %
12.05.2023 15:26 19,8 C 21,1 C 16,1 C 71 % 1017,6 hPa 0,0 l/m 0 min 0 min 362 W/m 16,1 km/h (3 Bft) 97,87 %
12.05.2023 15:28 19,8 C 20,6 C 15,6 C 71 % 1017,6 hPa 0,0 l/m 0 min 0 min 351 W/m 12,9 km/h (3 Bft) 95,74 %
12.05.2023 15:30 19,8 C 20,6 C 15,6 C 71 % 1017,6 hPa 0,0 l/m 0 min 0 min 329 W/m 16,1 km/h (3 Bft) 95,74 %
12.05.2023 15:32 19,7 C 20,6 C 15,6 C 72 % 1017,6 hPa 0,0 l/m 0 min 0 min 311 W/m 12,9 km/h (3 Bft) 93,48 %
12.05.2023 15:34 19,7 C 20,6 C 15,6 C 72 % 1017,6 hPa 0,0 l/m 0 min 0 min 315 W/m 12,9 km/h (3 Bft) 95,74 %
12.05.2023 15:36 19,6 C 20,6 C 15,6 C 73 % 1017,5 hPa 0,0 l/m 0 min 0 min 342 W/m 12,9 km/h (3 Bft) 95,74 %
12.05.2023 15:38 19,6 C 20,6 C 15,6 C 73 % 1017,6 hPa 0,0 l/m 0 min 0 min 354 W/m 9,7 km/h (2 Bft) 95,74 %
12.05.2023 15:40 19,6 C 20,0 C 15,6 C 73 % 1017,5 hPa 0,0 l/m 0 min 0 min 316 W/m 12,9 km/h (3 Bft) 97,87 %
12.05.2023 15:42 19,6 C 20,0 C 15,6 C 73 % 1017,5 hPa 0,0 l/m 0 min 0 min 265 W/m 22,5 km/h (4 Bft) 97,87 %
12.05.2023 15:44 19,5 C 20,0 C 15,6 C 73 % 1017,5 hPa 0,0 l/m 0 min 0 min 261 W/m 9,7 km/h (2 Bft) 97,83 %
12.05.2023 15:46 19,5 C 20,0 C 15,6 C 73 % 1017,5 hPa 0,0 l/m 0 min 0 min 260 W/m 16,1 km/h (3 Bft) 97,87 %
12.05.2023 15:48 19,4 C 20,0 C 15,6 C 73 % 1017,5 hPa 0,0 l/m 0 min 0 min 269 W/m 12,9 km/h (3 Bft) 97,87 %
12.05.2023 15:50 19,4 C 19,4 C 15,6 C 73 % 1017,5 hPa 0,0 l/m 0 min 0 min 296 W/m 16,1 km/h (3 Bft) 97,87 %
12.05.2023 15:52 19,4 C 20,0 C 15,6 C 73 % 1017,4 hPa 0,0 l/m 0 min 0 min 317 W/m 9,7 km/h (2 Bft) 97,87 %
12.05.2023 15:54 19,4 C 20,0 C 15,6 C 73 % 1017,5 hPa 0,0 l/m 0 min 0 min 323 W/m 16,1 km/h (3 Bft) 95,74 %
12.05.2023 15:56 19,5 C 20,0 C 15,6 C 73 % 1017,4 hPa 0,0 l/m 0 min 0 min 317 W/m 19,3 km/h (3 Bft) 97,87 %
12.05.2023 15:58 19,5 C 20,0 C 15,6 C 73 % 1017,4 hPa 0,0 l/m 0 min 0 min 295 W/m 16,1 km/h (3 Bft) 97,83 %
12.05.2023 16:00 19,5 C 20,0 C 15,6 C 73 % 1017,4 hPa 0,0 l/m 0 min 0 min 282 W/m 9,7 km/h (2 Bft) 97,87 %
12.05.2023 16:02 19,6 C 20,6 C 15,6 C 73 % 1017,4 hPa 0,0 l/m 0 min 0 min 272 W/m 3,2 km/h (1 Bft) 97,87 %
12.05.2023 16:04 19,6 C 20,0 C 15,6 C 73 % 1017,4 hPa 0,0 l/m 0 min 0 min 259 W/m 12,9 km/h (3 Bft) 93,62 %
12.05.2023 16:06 19,6 C 20,0 C 15,6 C 73 % 1017,5 hPa 0,0 l/m 0 min 0 min 230 W/m 12,9 km/h (3 Bft) 98,31 %
12.05.2023 16:08 19,5 C 20,0 C 15,6 C 72 % 1017,5 hPa 0,0 l/m 0 min 0 min 197 W/m 9,7 km/h (2 Bft) 97,14 %
12.05.2023 16:10 19,4 C 19,4 C 15,0 C 72 % 1017,4 hPa 0,0 l/m 0 min 0 min 177 W/m 16,1 km/h (3 Bft) 97,87 %
12.05.2023 16:12 19,4 C 19,4 C 15,0 C 73 % 1017,4 hPa 0,0 l/m 0 min 0 min 165 W/m 12,9 km/h (3 Bft) 97,14 %
12.05.2023 16:14 19,3 C 18,9 C 15,0 C 73 % 1017,4 hPa 0,0 l/m 0 min 0 min 180 W/m 9,7 km/h (2 Bft) 96,77 %
12.05.2023 16:16 19,3 C 19,4 C 15,0 C 73 % 1017,4 hPa 0,0 l/m 0 min 0 min 202 W/m 6,4 km/h (2 Bft) 97,87 %
12.05.2023 16:18 19,3 C 19,4 C 15,0 C 73 % 1017,4 hPa 0,0 l/m 0 min 0 min 214 W/m 6,4 km/h (2 Bft) 97,87 %
12.05.2023 16:20 19,3 C 19,4 C 15,0 C 73 % 1017,4 hPa 0,0 l/m 0 min 0 min 231 W/m 12,9 km/h (3 Bft) 97,83 %
12.05.2023 16:22 19,3 C 19,4 C 15,0 C 72 % 1017,3 hPa 0,0 l/m 0 min 0 min 253 W/m 12,9 km/h (3 Bft) 97,87 %
12.05.2023 16:24 19,3 C 20,0 C 15,6 C 73 % 1017,3 hPa 0,0 l/m 0 min 0 min 277 W/m 9,7 km/h (2 Bft) 97,87 %
12.05.2023 16:26 19,3 C 20,0 C 15,6 C 73 % 1017,3 hPa 0,0 l/m 0 min 0 min 300 W/m 6,4 km/h (2 Bft) 100,00 %
12.05.2023 16:28 19,4 C 20,0 C 15,6 C 73 % 1017,3 hPa 0,0 l/m 0 min 0 min 321 W/m 16,1 km/h (3 Bft) 100,00 %
12.05.2023 16:30 19,4 C 20,6 C 15,6 C 73 % 1017,3 hPa 0,0 l/m 2 min 0 min 342 W/m 9,7 km/h (2 Bft) 100,00 %
12.05.2023 16:32 19,6 C 20,6 C 15,6 C 73 % 1017,3 hPa 0,0 l/m 2 min 0 min 348 W/m 9,7 km/h (2 Bft) 97,87 %
12.05.2023 16:34 19,6 C 21,1 C 16,1 C 73 % 1017,3 hPa 0,0 l/m 2 min 0 min 366 W/m 6,4 km/h (2 Bft) 95,74 %
12.05.2023 16:36 19,7 C 20,6 C 16,1 C 72 % 1017,3 hPa 0,0 l/m 0 min 0 min 288 W/m 19,3 km/h (3 Bft) 95,74 %
12.05.2023 16:38 19,7 C 20,6 C 16,1 C 72 % 1017,3 hPa 0,0 l/m 0 min 0 min 264 W/m 6,4 km/h (2 Bft) 100,00 %
12.05.2023 16:40 19,8 C 20,6 C 16,1 C 72 % 1017,3 hPa 0,0 l/m 0 min 0 min 235 W/m 9,7 km/h (2 Bft) 97,87 %
12.05.2023 16:42 19,8 C 20,6 C 15,6 C 72 % 1017,4 hPa 0,0 l/m 0 min 0 min 204 W/m 9,7 km/h (2 Bft) 95,74 %
12.05.2023 16:44 19,8 C 20,6 C 15,6 C 72 % 1017,4 hPa 0,0 l/m 0 min 0 min 184 W/m 9,7 km/h (2 Bft) 97,83 %
12.05.2023 16:46 19,8 C 20,0 C 15,6 C 73 % 1017,4 hPa 0,0 l/m 0 min 0 min 168 W/m 6,4 km/h (2 Bft) 97,87 %
12.05.2023 16:48 19,8 C 20,0 C 15,6 C 72 % 1017,4 hPa 0,0 l/m 0 min 0 min 146 W/m 12,9 km/h (3 Bft) 97,87 %
12.05.2023 16:50 19,8 C 19,4 C 15,6 C 71 % 1017,4 hPa 0,0 l/m 0 min 0 min 122 W/m 6,4 km/h (2 Bft) 97,87 %
12.05.2023 16:52 19,8 C 19,4 C 15,6 C 71 % 1017,4 hPa 0,0 l/m 0 min 0 min 108 W/m 9,7 km/h (2 Bft) 95,74 %
12.05.2023 16:54 19,8 C 19,4 C 15,0 C 71 % 1017,4 hPa 0,0 l/m 0 min 0 min 113 W/m 9,7 km/h (2 Bft) 97,83 %
12.05.2023 16:56 19,7 C 19,4 C 15,0 C 72 % 1017,5 hPa 0,0 l/m 0 min 0 min 125 W/m 9,7 km/h (2 Bft) 97,87 %
12.05.2023 16:58 19,7 C 19,4 C 15,0 C 72 % 1017,5 hPa 0,0 l/m 0 min 0 min 129 W/m 12,9 km/h (3 Bft) 97,87 %
12.05.2023 17:00 19,7 C 18,9 C 15,0 C 72 % 1017,5 hPa 0,0 l/m 0 min 0 min 120 W/m 9,7 km/h (2 Bft) 97,87 %
12.05.2023 17:02 19,6 C 18,9 C 15,0 C 71 % 1017,5 hPa 0,0 l/m 0 min 0 min 117 W/m 16,1 km/h (3 Bft) 95,74 %
12.05.2023 17:04 19,6 C 19,4 C 15,0 C 72 % 1017,5 hPa 0,0 l/m 0 min 0 min 126 W/m 6,4 km/h (2 Bft) 97,87 %
12.05.2023 17:07 19,6 C 19,4 C 15,0 C 72 % 1017,6 hPa 0,0 l/m 0 min 0 min 146 W/m 9,7 km/h (2 Bft) 94,44 %
12.05.2023 17:08 19,6 C 19,4 C 15,0 C 72 % 1017,6 hPa 0,0 l/m 0 min 0 min 155 W/m 3,2 km/h (1 Bft) 95,83 %
12.05.2023 17:10 19,6 C 19,4 C 15,0 C 73 % 1017,5 hPa 0,0 l/m 0 min 0 min 161 W/m 6,4 km/h (2 Bft) 95,65 %
12.05.2023 17:12 19,6 C 19,4 C 15,0 C 73 % 1017,5 hPa 0,0 l/m 0 min 0 min 167 W/m 3,2 km/h (1 Bft) 95,74 %
12.05.2023 17:14 19,6 C 19,4 C 15,6 C 74 % 1017,6 hPa 0,0 l/m 0 min 0 min 166 W/m 12,9 km/h (3 Bft) 95,74 %
12.05.2023 17:16 19,6 C 19,4 C 15,6 C 73 % 1017,6 hPa 0,0 l/m 0 min 0 min 155 W/m 12,9 km/h (3 Bft) 95,74 %
12.05.2023 17:18 19,6 C 19,4 C 15,6 C 73 % 1017,6 hPa 0,0 l/m 0 min 0 min 143 W/m 6,4 km/h (2 Bft) 97,83 %
12.05.2023 17:20 19,6 C 19,4 C 15,6 C 74 % 1017,6 hPa 0,0 l/m 0 min 0 min 143 W/m 12,9 km/h (3 Bft) 95,74 %
12.05.2023 17:22 19,6 C 19,4 C 15,6 C 74 % 1017,6 hPa 0,0 l/m 0 min 0 min 150 W/m 9,7 km/h (2 Bft) 97,87 %
12.05.2023 17:24 19,7 C 19,4 C 15,6 C 74 % 1017,6 hPa 0,0 l/m 0 min 0 min 140 W/m 9,7 km/h (2 Bft) 95,74 %
12.05.2023 17:26 19,7 C 19,4 C 15,6 C 74 % 1017,6 hPa 0,0 l/m 0 min 0 min 132 W/m 6,4 km/h (2 Bft) 95,74 %
12.05.2023 17:28 19,7 C 19,4 C 15,6 C 73 % 1017,6 hPa 0,0 l/m 0 min 0 min 160 W/m 12,9 km/h (3 Bft) 95,74 %
12.05.2023 17:30 19,7 C 19,4 C 15,6 C 73 % 1017,5 hPa 0,0 l/m 0 min 0 min 198 W/m 6,4 km/h (2 Bft) 97,83 %
12.05.2023 17:32 19,7 C 20,0 C 15,6 C 73 % 1017,5 hPa 0,0 l/m 0 min 0 min 217 W/m 9,7 km/h (2 Bft) 95,74 %
12.05.2023 17:34 19,7 C 20,0 C 15,6 C 74 % 1017,6 hPa 0,0 l/m 0 min 0 min 218 W/m 9,7 km/h (2 Bft) 97,87 %
12.05.2023 17:36 19,8 C 20,6 C 15,6 C 74 % 1017,6 hPa 0,0 l/m 0 min 0 min 210 W/m 9,7 km/h (2 Bft) 95,74 %
12.05.2023 17:38 19,8 C 20,0 C 15,6 C 73 % 1017,6 hPa 0,0 l/m 0 min 0 min 208 W/m 16,1 km/h (3 Bft) 97,87 %
12.05.2023 17:40 19,8 C 20,6 C 15,6 C 72 % 1017,6 hPa 0,0 l/m 0 min 0 min 208 W/m 12,9 km/h (3 Bft) 97,87 %
12.05.2023 17:42 19,8 C 20,6 C 15,6 C 71 % 1017,6 hPa 0,0 l/m 0 min 0 min 184 W/m 9,7 km/h (2 Bft) 100,00 %
12.05.2023 17:44 19,8 C 20,6 C 15,6 C 70 % 1017,6 hPa 0,0 l/m 0 min 0 min 210 W/m 9,7 km/h (2 Bft) 100,00 %
12.05.2023 17:46 19,8 C 22,2 C 16,1 C 70 % 1017,6 hPa 0,0 l/m 2 min 0 min 354 W/m 9,7 km/h (2 Bft) 97,87 %
12.05.2023 17:48 19,9 C 23,3 C 16,7 C 70 % 1017,6 hPa 0,0 l/m 2 min 0 min 580 W/m 9,7 km/h (2 Bft) 100,00 %
12.05.2023 17:50 20,0 C 22,2 C 16,7 C 69 % 1017,6 hPa 0,0 l/m 2 min 0 min 342 W/m 12,9 km/h (3 Bft) 100,00 %
12.05.2023 17:52 20,1 C 21,7 C 16,1 C 67 % 1017,6 hPa 0,0 l/m 0 min 0 min 118 W/m 16,1 km/h (3 Bft) 100,00 %
12.05.2023 17:54 20,1 C 20,6 C 16,1 C 67 % 1017,6 hPa 0,0 l/m 0 min 0 min 100 W/m 12,9 km/h (3 Bft) 100,00 %
12.05.2023 17:56 20,0 C 20,6 C 15,6 C 67 % 1017,6 hPa 0,0 l/m 0 min 0 min 89 W/m 19,3 km/h (3 Bft) 100,00 %
12.05.2023 17:58 19,9 C 20,0 C 15,6 C 67 % 1017,6 hPa 0,0 l/m 0 min 0 min 90 W/m 16,1 km/h (3 Bft) 100,00 %
12.05.2023 18:00 19,9 C 19,4 C 15,6 C 66 % 1017,7 hPa 0,0 l/m 0 min 0 min 86 W/m 12,9 km/h (3 Bft) 100,00 %
12.05.2023 18:02 19,8 C 19,4 C 15,6 C 66 % 1017,7 hPa 0,0 l/m 0 min 0 min 93 W/m 9,7 km/h (2 Bft) 100,00 %
12.05.2023 18:04 19,7 C 19,4 C 15,0 C 66 % 1017,8 hPa 0,0 l/m 0 min 0 min 111 W/m 29,0 km/h (5 Bft) 100,00 %
12.05.2023 18:05 19,7 C 19,4 C 15,0 C 64 % 1017,8 hPa 0,0 l/m 0 min 0 min 108 W/m 29,0 km/h (5 Bft) 100,00 %
12.05.2023 18:10 19,5 C 18,9 C 15,0 C 62 % 1017,9 hPa 0,0 l/m 0 min 0 min 162 W/m 19,3 km/h (3 Bft) 97,63 %
12.05.2023 00:00 13,7 C 12,8 C 9,4 C 97 % 1015,6 hPa 0,0 l/m 0 min 5 min 0 W/m 3,2 km/h (1 Bft) 98,25 %
12.05.2023 00:05 13,7 C 12,8 C 8,9 C 97 % 1015,6 hPa 0,0 l/m 0 min 5 min 0 W/m 9,7 km/h (2 Bft) 96,49 %
12.05.2023 00:10 13,6 C 12,8 C 8,9 C 97 % 1015,5 hPa 0,0 l/m 0 min 5 min 0 W/m 6,4 km/h (2 Bft) 98,25 %
12.05.2023 00:15 13,6 C 12,8 C 8,9 C 97 % 1015,5 hPa 0,0 l/m 0 min 5 min 0 W/m 9,7 km/h (2 Bft) 99,12 %
12.05.2023 00:20 13,6 C 12,8 C 8,9 C 97 % 1015,5 hPa 0,0 l/m 0 min 5 min 0 W/m 9,7 km/h (2 Bft) 99,12 %
12.05.2023 00:25 13,6 C 12,8 C 8,9 C 97 % 1015,4 hPa 0,0 l/m 0 min 5 min 0 W/m 0,0 km/h (0 Bft) 98,25 %
12.05.2023 00:30 13,5 C 12,8 C 9,4 C 97 % 1015,4 hPa 0,0 l/m 0 min 5 min 0 W/m 9,7 km/h (2 Bft) 97,37 %
12.05.2023 00:35 13,6 C 12,8 C 9,4 C 97 % 1015,4 hPa 0,0 l/m 0 min 5 min 0 W/m 6,4 km/h (2 Bft) 100,00 %
12.05.2023 00:40 13,6 C 12,8 C 9,4 C 97 % 1015,4 hPa 0,0 l/m 0 min 5 min 0 W/m 9,7 km/h (2 Bft) 100,00 %
12.05.2023 00:45 13,6 C 12,8 C 9,4 C 97 % 1015,3 hPa 0,0 l/m 0 min 5 min 0 W/m 3,2 km/h (1 Bft) 100,00 %
12.05.2023 00:50 13,6 C 12,8 C 9,4 C 97 % 1015,4 hPa 0,0 l/m 0 min 5 min 0 W/m 0,0 km/h (0 Bft) 98,25 %
12.05.2023 00:55 13,6 C 12,8 C 9,4 C 97 % 1015,3 hPa 0,0 l/m 0 min 5 min 0 W/m 0,0 km/h (0 Bft) 97,37 %
12.05.2023 01:00 13,5 C 12,8 C 9,4 C 98 % 1015,3 hPa 0,0 l/m 0 min 5 min 0 W/m 0,0 km/h (0 Bft) 100,00 %
12.05.2023 01:05 13,6 C 12,8 C 9,4 C 98 % 1015,3 hPa 0,0 l/m 0 min 5 min 0 W/m 0,0 km/h (0 Bft) 99,12 %
12.05.2023 01:10 13,6 C 12,8 C 9,4 C 98 % 1015,3 hPa 0,0 l/m 0 min 5 min 0 W/m 0,0 km/h (0 Bft) 98,25 %
12.05.2023 01:15 13,6 C 12,8 C 9,4 C 98 % 1015,2 hPa 0,0 l/m 0 min 5 min 0 W/m 0,0 km/h (0 Bft) 100,00 %
12.05.2023 01:20 13,6 C 12,8 C 9,4 C 98 % 1015,2 hPa 0,0 l/m 0 min 5 min 0 W/m 0,0 km/h (0 Bft) 99,12 %
12.05.2023 01:25 13,6 C 12,8 C 9,4 C 98 % 1015,2 hPa 0,0 l/m 0 min 5 min 0 W/m 0,0 km/h (0 Bft) 97,37 %
12.05.2023 01:30 13,6 C 12,8 C 9,4 C 98 % 1015,1 hPa 0,0 l/m 0 min 5 min 0 W/m 0,0 km/h (0 Bft) 98,25 %
12.05.2023 01:35 13,5 C 12,2 C 9,4 C 98 % 1015,1 hPa 0,0 l/m 0 min 5 min 0 W/m 9,7 km/h (2 Bft) 96,49 %
12.05.2023 01:40 13,4 C 12,2 C 9,4 C 98 % 1015,0 hPa 0,0 l/m 0 min 5 min 0 W/m 9,7 km/h (2 Bft) 98,25 %
12.05.2023 01:45 13,4 C 12,2 C 9,4 C 98 % 1015,0 hPa 0,0 l/m 0 min 5 min 0 W/m 6,4 km/h (2 Bft) 100,00 %
12.05.2023 01:50 13,4 C 12,2 C 9,4 C 98 % 1015,0 hPa 0,0 l/m 0 min 5 min 0 W/m 3,2 km/h (1 Bft) 100,00 %
12.05.2023 01:55 13,4 C 12,2 C 9,4 C 98 % 1014,9 hPa 0,0 l/m 0 min 5 min 0 W/m 6,4 km/h (2 Bft) 100,00 %
12.05.2023 02:00 13,4 C 12,2 C 9,4 C 98 % 1014,9 hPa 0,0 l/m 0 min 5 min 0 W/m 3,2 km/h (1 Bft) 100,00 %
12.05.2023 02:05 13,4 C 12,2 C 9,4 C 98 % 1014,8 hPa 0,0 l/m 0 min 5 min 0 W/m 9,7 km/h (2 Bft) 100,00 %
12.05.2023 02:10 13,4 C 12,2 C 9,4 C 98 % 1014,7 hPa 0,0 l/m 0 min 0 min 0 W/m 6,4 km/h (2 Bft) 100,00 %
12.05.2023 02:15 13,4 C 12,2 C 9,4 C 98 % 1014,7 hPa 0,0 l/m 0 min 5 min 0 W/m 6,4 km/h (2 Bft) 100,00 %
12.05.2023 02:20 13,3 C 12,2 C 9,4 C 98 % 1014,7 hPa 0,0 l/m 0 min 0 min 0 W/m 9,7 km/h (2 Bft) 100,00 %
12.05.2023 02:25 13,3 C 12,2 C 8,9 C 98 % 1014,7 hPa 0,0 l/m 0 min 5 min 0 W/m 9,7 km/h (2 Bft) 100,00 %
12.05.2023 02:30 13,3 C 12,2 C 9,4 C 98 % 1014,7 hPa 0,0 l/m 0 min 0 min 0 W/m 9,7 km/h (2 Bft) 100,00 %
12.05.2023 02:35 13,2 C 12,2 C 8,9 C 98 % 1014,6 hPa 0,0 l/m 0 min 5 min 0 W/m 16,1 km/h (3 Bft) 100,00 %
12.05.2023 02:40 13,2 C 12,2 C 8,9 C 98 % 1014,6 hPa 0,0 l/m 0 min 5 min 0 W/m 9,7 km/h (2 Bft) 100,00 %
12.05.2023 02:45 13,2 C 12,2 C 8,9 C 98 % 1014,6 hPa 0,0 l/m 0 min 5 min 0 W/m 16,1 km/h (3 Bft) 100,00 %
12.05.2023 02:50 13,1 C 12,2 C 8,9 C 98 % 1014,5 hPa 0,0 l/m 0 min 5 min 0 W/m 9,7 km/h (2 Bft) 100,00 %
12.05.2023 02:55 13,1 C 12,2 C 8,9 C 98 % 1014,5 hPa 0,0 l/m 0 min 5 min 0 W/m 19,3 km/h (3 Bft) 100,00 %
12.05.2023 03:00 13,1 C 12,2 C 8,9 C 98 % 1014,4 hPa 0,0 l/m 0 min 5 min 0 W/m 19,3 km/h (3 Bft) 99,12 %
12.05.2023 03:05 13,0 C 12,2 C 8,9 C 98 % 1014,4 hPa 0,0 l/m 0 min 5 min 0 W/m 12,9 km/h (3 Bft) 100,00 %
12.05.2023 03:10 12,9 C 12,2 C 8,9 C 98 % 1014,3 hPa 0,0 l/m 0 min 5 min 0 W/m 9,7 km/h (2 Bft) 99,12 %
12.05.2023 03:15 12,8 C 11,7 C 8,9 C 98 % 1014,3 hPa 0,0 l/m 0 min 5 min 0 W/m 19,3 km/h (3 Bft) 98,25 %
12.05.2023 03:20 12,8 C 11,7 C 8,9 C 98 % 1014,3 hPa 0,0 l/m 0 min 5 min 0 W/m 12,9 km/h (3 Bft) 95,61 %
12.05.2023 03:25 12,7 C 11,7 C 8,9 C 98 % 1014,3 hPa 0,0 l/m 0 min 5 min 0 W/m 12,9 km/h (3 Bft) 95,61 %
12.05.2023 03:30 12,7 C 11,7 C 8,9 C 98 % 1014,3 hPa 0,0 l/m 0 min 5 min 0 W/m 12,9 km/h (3 Bft) 96,49 %
12.05.2023 03:35 12,6 C 11,7 C 8,9 C 98 % 1014,2 hPa 0,2 l/m 0 min 5 min 0 W/m 12,9 km/h (3 Bft) 96,49 %
12.05.2023 03:40 12,6 C 11,7 C 8,3 C 98 % 1014,1 hPa 0,0 l/m 0 min 5 min 0 W/m 19,3 km/h (3 Bft) 95,61 %
12.05.2023 03:45 12,5 C 11,7 C 8,3 C 98 % 1014,2 hPa 0,0 l/m 0 min 5 min 0 W/m 16,1 km/h (3 Bft) 96,49 %
12.05.2023 03:50 12,4 C 11,7 C 8,3 C 98 % 1014,1 hPa 0,0 l/m 0 min 5 min 0 W/m 12,9 km/h (3 Bft) 97,37 %
12.05.2023 03:55 12,4 C 11,7 C 8,9 C 98 % 1014,0 hPa 0,0 l/m 0 min 5 min 0 W/m 19,3 km/h (3 Bft) 99,12 %
12.05.2023 04:00 12,4 C 11,7 C 8,9 C 98 % 1014,0 hPa 0,0 l/m 0 min 5 min 0 W/m 12,9 km/h (3 Bft) 100,00 %
12.05.2023 04:05 12,3 C 11,1 C 8,9 C 98 % 1014,1 hPa 0,0 l/m 0 min 5 min 0 W/m 12,9 km/h (3 Bft) 78,07 %
12.05.2023 04:10 12,3 C 11,1 C 8,3 C 98 % 1014,1 hPa 0,0 l/m 0 min 5 min 0 W/m 12,9 km/h (3 Bft) 100,00 %
12.05.2023 04:15 12,2 C 11,1 C 8,3 C 99 % 1014,0 hPa 0,0 l/m 0 min 0 min 0 W/m 9,7 km/h (2 Bft) 100,00 %
12.05.2023 04:20 12,2 C 11,1 C 8,3 C 99 % 1013,9 hPa 0,0 l/m 0 min 0 min 0 W/m 12,9 km/h (3 Bft) 100,00 %
12.05.2023 04:25 12,2 C 11,1 C 8,3 C 99 % 1013,8 hPa 0,0 l/m 0 min 0 min 0 W/m 9,7 km/h (2 Bft) 100,00 %
12.05.2023 04:30 12,2 C 11,1 C 8,3 C 99 % 1013,8 hPa 0,0 l/m 0 min 0 min 0 W/m 12,9 km/h (3 Bft) 100,00 %
12.05.2023 04:35 12,2 C 11,1 C 8,3 C 99 % 1013,7 hPa 0,0 l/m 0 min 0 min 0 W/m 6,4 km/h (2 Bft) 100,00 %
12.05.2023 04:40 12,2 C 11,7 C 8,9 C 99 % 1013,7 hPa 0,0 l/m 0 min 0 min 0 W/m 9,7 km/h (2 Bft) 100,00 %
12.05.2023 04:45 12,2 C 11,1 C 8,9 C 99 % 1013,6 hPa 0,0 l/m 0 min 0 min 0 W/m 9,7 km/h (2 Bft) 100,00 %
12.05.2023 04:50 12,2 C 11,7 C 8,9 C 99 % 1013,7 hPa 0,0 l/m 0 min 0 min 0 W/m 6,4 km/h (2 Bft) 100,00 %
12.05.2023 04:55 12,2 C 11,1 C 8,9 C 99 % 1013,7 hPa 0,0 l/m 0 min 0 min 0 W/m 6,4 km/h (2 Bft) 100,00 %
12.05.2023 05:00 12,2 C 11,7 C 8,9 C 99 % 1013,7 hPa 0,0 l/m 0 min 0 min 0 W/m 6,4 km/h (2 Bft) 100,00 %
12.05.2023 05:05 12,3 C 11,7 C 8,9 C 99 % 1013,8 hPa 0,0 l/m 0 min 0 min 0 W/m 0,0 km/h (0 Bft) 100,00 %
12.05.2023 05:10 12,3 C 11,7 C 8,9 C 99 % 1013,7 hPa 0,0 l/m 0 min 0 min 0 W/m 0,0 km/h (0 Bft) 100,00 %
12.05.2023 05:15 12,3 C 11,7 C 8,9 C 99 % 1013,7 hPa 0,0 l/m 0 min 0 min 0 W/m 0,0 km/h (0 Bft) 100,00 %
12.05.2023 05:20 12,3 C 11,7 C 8,9 C 99 % 1013,8 hPa 0,0 l/m 0 min 0 min 0 W/m 0,0 km/h (0 Bft) 100,00 %
12.05.2023 05:25 12,3 C 11,7 C 8,9 C 99 % 1013,8 hPa 0,0 l/m 0 min 0 min 0 W/m 0,0 km/h (0 Bft) 100,00 %
12.05.2023 05:30 12,3 C 11,7 C 8,9 C 99 % 1013,8 hPa 0,0 l/m 0 min 0 min 0 W/m 0,0 km/h (0 Bft) 98,25 %
12.05.2023 05:35 12,3 C 11,7 C 8,9 C 99 % 1013,7 hPa 0,0 l/m 0 min 0 min 0 W/m 6,4 km/h (2 Bft) 98,25 %
12.05.2023 05:40 12,3 C 11,7 C 8,9 C 99 % 1013,9 hPa 0,0 l/m 0 min 0 min 0 W/m 0,0 km/h (0 Bft) 99,12 %
12.05.2023 05:45 12,3 C 11,7 C 8,9 C 99 % 1013,9 hPa 0,0 l/m 0 min 0 min 0 W/m 0,0 km/h (0 Bft) 98,25 %
12.05.2023 05:50 12,3 C 11,7 C 8,9 C 99 % 1014,0 hPa 0,0 l/m 0 min 0 min 0 W/m 0,0 km/h (0 Bft) 100,00 %
12.05.2023 05:55 12,3 C 11,7 C 8,9 C 99 % 1014,0 hPa 0,0 l/m 0 min 0 min 0 W/m 0,0 km/h (0 Bft) 98,25 %
12.05.2023 06:00 12,3 C 11,7 C 8,9 C 99 % 1014,0 hPa 0,0 l/m 0 min 0 min 0 W/m 0,0 km/h (0 Bft) 98,25 %
12.05.2023 06:05 12,3 C 11,7 C 8,9 C 99 % 1014,0 hPa 0,0 l/m 0 min 0 min 0 W/m 3,2 km/h (1 Bft) 96,49 %
12.05.2023 06:10 12,3 C 11,7 C 8,9 C 99 % 1014,1 hPa 0,0 l/m 0 min 0 min 0 W/m 3,2 km/h (1 Bft) 97,37 %
12.05.2023 06:15 12,3 C 11,7 C 8,9 C 99 % 1014,2 hPa 0,0 l/m 0 min 0 min 5 W/m 3,2 km/h (1 Bft) 97,37 %
12.05.2023 06:20 12,3 C 11,7 C 8,9 C 99 % 1014,2 hPa 0,0 l/m 0 min 0 min 7 W/m 3,2 km/h (1 Bft) 97,37 %
12.05.2023 06:25 12,3 C 11,7 C 8,9 C 99 % 1014,3 hPa 0,0 l/m 0 min 0 min 12 W/m 3,2 km/h (1 Bft) 97,37 %
12.05.2023 06:30 12,4 C 11,7 C 8,9 C 99 % 1014,3 hPa 0,0 l/m 0 min 0 min 19 W/m 3,2 km/h (1 Bft) 99,12 %
12.05.2023 06:35 12,4 C 11,7 C 8,9 C 99 % 1014,4 hPa 0,0 l/m 0 min 0 min 26 W/m 3,2 km/h (1 Bft) 100,00 %
12.05.2023 06:40 12,4 C 11,7 C 8,9 C 99 % 1014,3 hPa 0,0 l/m 0 min 0 min 21 W/m 0,0 km/h (0 Bft) 99,12 %
12.05.2023 06:45 12,5 C 11,7 C 8,9 C 99 % 1014,5 hPa 0,0 l/m 0 min 0 min 19 W/m 0,0 km/h (0 Bft) 100,00 %
12.05.2023 06:50 12,5 C 11,7 C 8,9 C 99 % 1014,6 hPa 0,0 l/m 0 min 0 min 26 W/m 0,0 km/h (0 Bft) 100,00 %
12.05.2023 06:55 12,5 C 11,7 C 8,9 C 99 % 1014,7 hPa 0,0 l/m 0 min 0 min 32 W/m 0,0 km/h (0 Bft) 100,00 %
12.05.2023 07:00 12,5 C 11,7 C 8,9 C 99 % 1014,7 hPa 0,0 l/m 0 min 0 min 29 W/m 0,0 km/h (0 Bft) 100,00 %
12.05.2023 07:05 12,5 C 11,7 C 8,9 C 99 % 1014,8 hPa 0,0 l/m 0 min 0 min 24 W/m 0,0 km/h (0 Bft) 100,00 %
12.05.2023 07:10 12,6 C 12,2 C 8,9 C 99 % 1014,9 hPa 0,0 l/m 0 min 0 min 24 W/m 0,0 km/h (0 Bft) 100,00 %
12.05.2023 07:15 12,6 C 12,2 C 8,9 C 99 % 1015,0 hPa 0,0 l/m 0 min 0 min 37 W/m 0,0 km/h (0 Bft) 100,00 %
12.05.2023 07:20 12,6 C 12,2 C 8,9 C 99 % 1015,0 hPa 0,0 l/m 0 min 0 min 48 W/m 0,0 km/h (0 Bft) 100,00 %
12.05.2023 07:25 12,7 C 12,2 C 8,9 C 99 % 1015,0 hPa 0,0 l/m 0 min 0 min 51 W/m 0,0 km/h (0 Bft) 100,00 %
12.05.2023 07:30 12,7 C 12,2 C 8,9 C 99 % 1015,1 hPa 0,0 l/m 0 min 0 min 54 W/m 6,4 km/h (2 Bft) 99,12 %
12.05.2023 07:35 12,8 C 12,2 C 9,4 C 99 % 1015,2 hPa 0,0 l/m 0 min 0 min 57 W/m 6,4 km/h (2 Bft) 100,00 %
12.05.2023 07:40 12,8 C 12,2 C 9,4 C 99 % 1015,2 hPa 0,0 l/m 0 min 0 min 65 W/m 9,7 km/h (2 Bft) 100,00 %
12.05.2023 07:45 12,8 C 12,8 C 9,4 C 99 % 1015,3 hPa 0,0 l/m 0 min 0 min 75 W/m 9,7 km/h (2 Bft) 100,00 %
12.05.2023 07:50 12,8 C 12,8 C 9,4 C 99 % 1015,4 hPa 0,0 l/m 0 min 0 min 89 W/m 16,1 km/h (3 Bft) 100,00 %
12.05.2023 07:55 12,9 C 12,8 C 9,4 C 99 % 1015,4 hPa 0,0 l/m 0 min 0 min 104 W/m 9,7 km/h (2 Bft) 100,00 %
12.05.2023 08:00 12,9 C 13,3 C 9,4 C 99 % 1015,4 hPa 0,0 l/m 0 min 0 min 125 W/m 6,4 km/h (2 Bft) 100,00 %
12.05.2023 08:05 13,0 C 13,3 C 9,4 C 99 % 1015,5 hPa 0,0 l/m 0 min 0 min 146 W/m 9,7 km/h (2 Bft) 100,00 %
12.05.2023 08:10 13,1 C 13,9 C 9,4 C 100 % 1015,6 hPa 0,0 l/m 5 min 0 min 183 W/m 16,1 km/h (3 Bft) 100,00 %
12.05.2023 08:15 13,1 C 13,9 C 9,4 C 100 % 1015,6 hPa 0,0 l/m 5 min 0 min 201 W/m 16,1 km/h (3 Bft) 100,00 %
12.05.2023 08:20 13,1 C 14,4 C 9,4 C 99 % 1015,8 hPa 0,0 l/m 5 min 0 min 216 W/m 12,9 km/h (3 Bft) 100,00 %
12.05.2023 08:25 13,2 C 15,0 C 10,0 C 99 % 1015,8 hPa 0,0 l/m 5 min 0 min 243 W/m 9,7 km/h (2 Bft) 100,00 %
12.05.2023 08:30 13,4 C 16,1 C 10,0 C 100 % 1015,8 hPa 0,0 l/m 5 min 0 min 273 W/m 16,1 km/h (3 Bft) 100,00 %
12.05.2023 08:35 13,5 C 16,7 C 10,0 C 99 % 1015,9 hPa 0,0 l/m 5 min 0 min 279 W/m 12,9 km/h (3 Bft) 100,00 %
12.05.2023 08:40 13,6 C 15,6 C 9,4 C 99 % 1015,9 hPa 0,0 l/m 0 min 0 min 180 W/m 12,9 km/h (3 Bft) 97,37 %
12.05.2023 08:45 13,5 C 15,0 C 9,4 C 99 % 1015,9 hPa 0,0 l/m 0 min 0 min 179 W/m 22,5 km/h (4 Bft) 97,37 %
12.05.2023 08:50 13,6 C 15,6 C 10,0 C 99 % 1015,9 hPa 0,0 l/m 5 min 0 min 222 W/m 12,9 km/h (3 Bft) 98,25 %
12.05.2023 08:55 13,6 C 15,0 C 9,4 C 99 % 1016,0 hPa 0,0 l/m 0 min 0 min 189 W/m 19,3 km/h (3 Bft) 96,49 %
12.05.2023 09:00 13,7 C 15,0 C 10,0 C 98 % 1016,1 hPa 0,0 l/m 0 min 0 min 199 W/m 9,7 km/h (2 Bft) 97,37 %
12.05.2023 09:05 13,7 C 15,0 C 9,4 C 98 % 1016,1 hPa 0,0 l/m 0 min 0 min 205 W/m 16,1 km/h (3 Bft) 94,74 %
12.05.2023 09:10 13,9 C 16,1 C 10,0 C 97 % 1016,2 hPa 0,0 l/m 5 min 5 min 299 W/m 9,7 km/h (2 Bft) 93,86 %
12.05.2023 09:15 14,2 C 17,8 C 10,6 C 97 % 1016,2 hPa 0,0 l/m 5 min 0 min 350 W/m 16,1 km/h (3 Bft) 95,61 %
12.05.2023 09:20 14,4 C 18,9 C 10,6 C 96 % 1016,2 hPa 0,0 l/m 5 min 0 min 380 W/m 16,1 km/h (3 Bft) 96,49 %
12.05.2023 09:25 14,7 C 19,4 C 10,6 C 96 % 1016,2 hPa 0,0 l/m 5 min 0 min 398 W/m 16,1 km/h (3 Bft) 100,00 %
12.05.2023 09:30 15,0 C 20,6 C 11,1 C 95 % 1016,2 hPa 0,0 l/m 5 min 0 min 446 W/m 12,9 km/h (3 Bft) 100,00 %
12.05.2023 09:35 15,3 C 20,0 C 11,1 C 93 % 1016,3 hPa 0,0 l/m 5 min 0 min 478 W/m 16,1 km/h (3 Bft) 100,00 %
12.05.2023 09:40 15,4 C 20,0 C 11,1 C 92 % 1016,3 hPa 0,0 l/m 5 min 0 min 440 W/m 12,9 km/h (3 Bft) 100,00 %
12.05.2023 09:45 15,6 C 19,4 C 11,1 C 90 % 1016,3 hPa 0,2 l/m 5 min 0 min 448 W/m 25,7 km/h (4 Bft) 100,00 %
12.05.2023 09:50 15,8 C 20,0 C 12,8 C 89 % 1016,4 hPa 0,0 l/m 5 min 0 min 450 W/m 16,1 km/h (3 Bft) 100,00 %
12.05.2023 09:55 16,0 C 20,6 C 13,3 C 88 % 1016,4 hPa 0,0 l/m 5 min 0 min 488 W/m 19,3 km/h (3 Bft) 100,00 %
12.05.2023 10:00 16,1 C 20,0 C 13,9 C 87 % 1016,4 hPa 0,0 l/m 5 min 0 min 467 W/m 16,1 km/h (3 Bft) 100,00 %
12.05.2023 10:05 16,2 C 20,0 C 13,3 C 86 % 1016,4 hPa 0,0 l/m 5 min 0 min 515 W/m 19,3 km/h (3 Bft) 100,00 %
12.05.2023 10:10 16,2 C 18,9 C 12,8 C 85 % 1016,5 hPa 0,0 l/m 5 min 0 min 356 W/m 16,1 km/h (3 Bft) 100,00 %
12.05.2023 10:15 16,1 C 17,8 C 12,8 C 85 % 1016,5 hPa 0,0 l/m 0 min 0 min 268 W/m 12,9 km/h (3 Bft) 100,00 %
12.05.2023 10:20 16,0 C 17,8 C 12,8 C 85 % 1016,5 hPa 0,0 l/m 5 min 0 min 415 W/m 12,9 km/h (3 Bft) 100,00 %
12.05.2023 10:25 16,1 C 18,9 C 13,3 C 84 % 1016,6 hPa 0,0 l/m 5 min 0 min 550 W/m 16,1 km/h (3 Bft) 100,00 %
12.05.2023 10:30 16,2 C 18,9 C 13,9 C 84 % 1016,6 hPa 0,0 l/m 5 min 0 min 546 W/m 16,1 km/h (3 Bft) 100,00 %
12.05.2023 10:35 16,4 C 18,9 C 13,9 C 83 % 1016,7 hPa 0,0 l/m 5 min 0 min 506 W/m 16,1 km/h (3 Bft) 100,00 %
12.05.2023 10:40 16,4 C 17,8 C 13,3 C 83 % 1016,7 hPa 0,0 l/m 5 min 0 min 339 W/m 19,3 km/h (3 Bft) 100,00 %
12.05.2023 10:45 16,4 C 17,2 C 12,8 C 83 % 1016,8 hPa 0,0 l/m 0 min 0 min 263 W/m 22,5 km/h (4 Bft) 100,00 %
12.05.2023 10:50 16,3 C 16,7 C 12,8 C 82 % 1016,8 hPa 0,0 l/m 0 min 0 min 269 W/m 12,9 km/h (3 Bft) 100,00 %
12.05.2023 10:55 16,2 C 16,7 C 12,8 C 82 % 1016,8 hPa 0,0 l/m 0 min 0 min 273 W/m 19,3 km/h (3 Bft) 100,00 %
12.05.2023 11:00 16,1 C 16,7 C 12,8 C 83 % 1016,9 hPa 0,0 l/m 0 min 0 min 283 W/m 19,3 km/h (3 Bft) 99,12 %
12.05.2023 11:05 16,1 C 16,7 C 12,8 C 83 % 1016,9 hPa 0,0 l/m 0 min 0 min 291 W/m 16,1 km/h (3 Bft) 100,00 %
12.05.2023 11:10 16,1 C 16,7 C 12,8 C 83 % 1017,0 hPa 0,0 l/m 0 min 0 min 318 W/m 16,1 km/h (3 Bft) 100,00 %
12.05.2023 11:15 16,1 C 16,7 C 12,8 C 82 % 1017,0 hPa 0,0 l/m 0 min 0 min 333 W/m 16,1 km/h (3 Bft) 98,25 %
12.05.2023 11:20 16,2 C 17,2 C 13,3 C 82 % 1017,0 hPa 0,0 l/m 5 min 0 min 428 W/m 16,1 km/h (3 Bft) 100,00 %
12.05.2023 11:25 16,4 C 18,3 C 13,3 C 81 % 1017,0 hPa 0,0 l/m 5 min 0 min 477 W/m 19,3 km/h (3 Bft) 97,37 %
12.05.2023 11:30 16,6 C 18,3 C 13,9 C 80 % 1017,1 hPa 0,0 l/m 5 min 0 min 463 W/m 19,3 km/h (3 Bft) 97,37 %
12.05.2023 11:35 16,9 C 20,6 C 14,4 C 81 % 1017,1 hPa 0,0 l/m 5 min 0 min 719 W/m 16,1 km/h (3 Bft) 99,12 %
12.05.2023 11:40 17,3 C 21,7 C 15,0 C 80 % 1017,1 hPa 0,0 l/m 5 min 0 min 812 W/m 16,1 km/h (3 Bft) 100,00 %
12.05.2023 11:45 17,8 C 23,3 C 15,6 C 80 % 1017,0 hPa 0,0 l/m 5 min 5 min 817 W/m 16,1 km/h (3 Bft) 100,00 %
12.05.2023 11:50 18,1 C 23,3 C 16,1 C 78 % 1017,1 hPa 0,0 l/m 5 min 0 min 813 W/m 12,9 km/h (3 Bft) 98,25 %
12.05.2023 11:55 18,4 C 23,3 C 16,1 C 77 % 1017,2 hPa 0,0 l/m 5 min 0 min 846 W/m 16,1 km/h (3 Bft) 97,37 %
12.05.2023 12:00 18,7 C 22,8 C 16,7 C 76 % 1017,3 hPa 0,0 l/m 5 min 0 min 748 W/m 16,1 km/h (3 Bft) 96,49 %
12.05.2023 12:05 18,8 C 21,7 C 16,1 C 74 % 1017,2 hPa 0,0 l/m 5 min 0 min 508 W/m 19,3 km/h (3 Bft) 97,37 %
12.05.2023 12:10 18,8 C 21,1 C 16,1 C 75 % 1017,2 hPa 0,0 l/m 5 min 0 min 503 W/m 16,1 km/h (3 Bft) 98,25 %
12.05.2023 12:15 19,1 C 23,9 C 18,9 C 74 % 1017,2 hPa 0,0 l/m 5 min 0 min 953 W/m 22,5 km/h (4 Bft) 100,00 %
12.05.2023 12:20 19,3 C 25,6 C 20,0 C 73 % 1017,2 hPa 0,0 l/m 5 min 0 min 1019 W/m 19,3 km/h (3 Bft) 99,12 %
12.05.2023 12:25 19,6 C 24,4 C 18,9 C 71 % 1017,2 hPa 0,0 l/m 5 min 0 min 769 W/m 22,5 km/h (4 Bft) 100,00 %
12.05.2023 12:30 19,6 C 22,8 C 18,3 C 71 % 1017,2 hPa 0,0 l/m 5 min 0 min 688 W/m 22,5 km/h (4 Bft) 100,00 %
12.05.2023 12:35 19,6 C 22,2 C 17,2 C 70 % 1017,2 hPa 0,0 l/m 5 min 0 min 453 W/m 12,9 km/h (3 Bft) 99,12 %
12.05.2023 12:40 19,4 C 21,1 C 16,7 C 70 % 1017,2 hPa 0,0 l/m 5 min 0 min 456 W/m 9,7 km/h (2 Bft) 100,00 %
12.05.2023 12:45 19,4 C 21,7 C 16,7 C 71 % 1017,2 hPa 0,0 l/m 5 min 0 min 526 W/m 12,9 km/h (3 Bft) 100,00 %
12.05.2023 12:50 19,6 C 21,7 C 16,1 C 75 % 1017,2 hPa 0,0 l/m 5 min 0 min 529 W/m 16,1 km/h (3 Bft) 100,00 %
12.05.2023 12:55 19,5 C 21,7 C 15,6 C 76 % 1017,2 hPa 0,0 l/m 5 min 0 min 441 W/m 9,7 km/h (2 Bft) 100,00 %
12.05.2023 13:00 19,3 C 21,1 C 15,0 C 75 % 1017,2 hPa 0,0 l/m 0 min 0 min 374 W/m 12,9 km/h (3 Bft) 100,00 %
12.05.2023 13:05 19,2 C 21,1 C 15,0 C 77 % 1017,2 hPa 0,0 l/m 0 min 0 min 393 W/m 9,7 km/h (2 Bft) 99,12 %
12.05.2023 13:10 19,0 C 20,6 C 15,0 C 77 % 1017,2 hPa 0,0 l/m 0 min 0 min 375 W/m 19,3 km/h (3 Bft) 100,00 %
12.05.2023 13:15 18,8 C 21,7 C 15,0 C 77 % 1017,2 hPa 0,0 l/m 0 min 0 min 383 W/m 16,1 km/h (3 Bft) 100,00 %
12.05.2023 13:20 18,9 C 20,0 C 15,0 C 76 % 1017,2 hPa 0,0 l/m 5 min 0 min 431 W/m 12,9 km/h (3 Bft) 100,00 %
12.05.2023 13:25 18,9 C 20,6 C 15,0 C 77 % 1017,2 hPa 0,0 l/m 5 min 0 min 408 W/m 19,3 km/h (3 Bft) 99,12 %
12.05.2023 13:30 18,8 C 20,6 C 15,6 C 77 % 1017,3 hPa 0,0 l/m 5 min 0 min 442 W/m 19,3 km/h (3 Bft) 100,00 %
12.05.2023 13:35 18,8 C 20,6 C 15,6 C 77 % 1017,4 hPa 0,0 l/m 5 min 0 min 408 W/m 12,9 km/h (3 Bft) 100,00 %
12.05.2023 13:40 18,7 C 19,4 C 15,0 C 76 % 1017,3 hPa 0,0 l/m 0 min 0 min 218 W/m 16,1 km/h (3 Bft) 100,00 %
12.05.2023 13:45 18,4 C 18,3 C 13,9 C 76 % 1017,3 hPa 0,0 l/m 0 min 0 min 135 W/m 9,7 km/h (2 Bft) 100,00 %
12.05.2023 13:50 18,2 C 17,8 C 13,9 C 77 % 1017,3 hPa 0,0 l/m 0 min 0 min 127 W/m 6,4 km/h (2 Bft) 100,00 %
12.05.2023 13:55 17,9 C 17,8 C 13,9 C 76 % 1017,4 hPa 0,0 l/m 0 min 0 min 169 W/m 16,1 km/h (3 Bft) 100,00 %
12.05.2023 14:00 17,9 C 18,3 C 13,9 C 77 % 1017,5 hPa 0,0 l/m 0 min 0 min 239 W/m 19,3 km/h (3 Bft) 100,00 %
12.05.2023 14:05 18,0 C 19,4 C 14,4 C 77 % 1017,5 hPa 0,0 l/m 0 min 0 min 328 W/m 16,1 km/h (3 Bft) 100,00 %
12.05.2023 14:10 18,2 C 20,0 C 15,0 C 77 % 1017,5 hPa 0,0 l/m 0 min 0 min 389 W/m 16,1 km/h (3 Bft) 100,00 %
12.05.2023 14:15 18,6 C 23,3 C 15,6 C 77 % 1017,4 hPa 0,0 l/m 5 min 0 min 689 W/m 12,9 km/h (3 Bft) 100,00 %
12.05.2023 14:20 19,0 C 22,2 C 16,1 C 75 % 1017,5 hPa 0,0 l/m 5 min 0 min 509 W/m 16,1 km/h (3 Bft) 100,00 %
12.05.2023 14:25 19,2 C 21,7 C 15,6 C 74 % 1017,5 hPa 0,0 l/m 0 min 0 min 370 W/m 16,1 km/h (3 Bft) 100,00 %
12.05.2023 14:30 19,3 C 21,7 C 15,6 C 73 % 1017,5 hPa 0,0 l/m 0 min 0 min 386 W/m 16,1 km/h (3 Bft) 100,00 %
12.05.2023 14:35 19,3 C 21,1 C 15,6 C 72 % 1017,5 hPa 0,0 l/m 0 min 0 min 390 W/m 19,3 km/h (3 Bft) 100,00 %
12.05.2023 14:40 19,3 C 22,2 C 16,1 C 73 % 1017,5 hPa 0,0 l/m 5 min 0 min 492 W/m 12,9 km/h (3 Bft) 100,00 %
12.05.2023 14:45 19,5 C 22,2 C 16,1 C 72 % 1017,5 hPa 0,0 l/m 5 min 0 min 573 W/m 19,3 km/h (3 Bft) 100,00 %
12.05.2023 14:50 19,6 C 21,7 C 16,1 C 72 % 1017,5 hPa 0,0 l/m 5 min 0 min 468 W/m 25,7 km/h (4 Bft) 100,00 %
12.05.2023 14:55 19,7 C 21,1 C 16,1 C 71 % 1017,5 hPa 0,0 l/m 5 min 0 min 424 W/m 19,3 km/h (3 Bft) 100,00 %
12.05.2023 15:00 19,6 C 20,6 C 15,6 C 72 % 1017,6 hPa 0,0 l/m 0 min 0 min 367 W/m 12,9 km/h (3 Bft) 100,00 %
12.05.2023 15:05 19,5 C 20,0 C 15,6 C 71 % 1017,6 hPa 0,0 l/m 0 min 0 min 332 W/m 22,5 km/h (4 Bft) 100,00 %
12.05.2023 15:10 19,4 C 20,6 C 15,6 C 72 % 1017,6 hPa 0,0 l/m 0 min 0 min 347 W/m 16,1 km/h (3 Bft) 99,12 %
12.05.2023 15:15 19,4 C 21,7 C 15,6 C 73 % 1017,6 hPa 0,0 l/m 5 min 0 min 463 W/m 22,5 km/h (4 Bft) 100,00 %
12.05.2023 15:20 19,8 C 22,2 C 16,1 C 72 % 1017,6 hPa 0,0 l/m 5 min 0 min 580 W/m 16,1 km/h (3 Bft) 98,25 %
12.05.2023 15:25 19,8 C 20,6 C 16,1 C 71 % 1017,6 hPa 0,0 l/m 5 min 0 min 380 W/m 22,5 km/h (4 Bft) 100,00 %
12.05.2023 15:30 19,8 C 20,6 C 15,6 C 71 % 1017,6 hPa 0,0 l/m 0 min 0 min 336 W/m 16,1 km/h (3 Bft) 97,37 %
12.05.2023 15:35 19,6 C 20,6 C 15,6 C 72 % 1017,5 hPa 0,0 l/m 0 min 0 min 319 W/m 12,9 km/h (3 Bft) 98,25 %
12.05.2023 15:40 19,6 C 20,0 C 15,6 C 73 % 1017,5 hPa 0,0 l/m 0 min 0 min 335 W/m 12,9 km/h (3 Bft) 99,12 %
12.05.2023 15:45 19,5 C 20,0 C 15,6 C 73 % 1017,5 hPa 0,0 l/m 0 min 0 min 262 W/m 22,5 km/h (4 Bft) 100,00 %
12.05.2023 15:50 19,4 C 19,4 C 15,6 C 73 % 1017,5 hPa 0,0 l/m 0 min 0 min 280 W/m 16,1 km/h (3 Bft) 100,00 %
12.05.2023 15:55 19,5 C 20,0 C 15,6 C 73 % 1017,5 hPa 0,0 l/m 0 min 0 min 321 W/m 16,1 km/h (3 Bft) 99,12 %
12.05.2023 16:00 19,5 C 20,0 C 15,6 C 73 % 1017,4 hPa 0,0 l/m 0 min 0 min 290 W/m 19,3 km/h (3 Bft) 100,00 %
12.05.2023 16:05 19,6 C 20,0 C 15,6 C 73 % 1017,5 hPa 0,0 l/m 0 min 0 min 255 W/m 12,9 km/h (3 Bft) 100,00 %
12.05.2023 16:10 19,4 C 19,4 C 15,0 C 72 % 1017,4 hPa 0,0 l/m 0 min 0 min 186 W/m 16,1 km/h (3 Bft) 100,00 %
12.05.2023 16:15 19,3 C 19,4 C 15,0 C 73 % 1017,4 hPa 0,0 l/m 0 min 0 min 181 W/m 12,9 km/h (3 Bft) 100,00 %
12.05.2023 16:20 19,3 C 19,4 C 15,0 C 73 % 1017,4 hPa 0,0 l/m 0 min 0 min 220 W/m 12,9 km/h (3 Bft) 100,00 %
12.05.2023 16:25 19,3 C 20,0 C 15,6 C 73 % 1017,3 hPa 0,0 l/m 0 min 0 min 274 W/m 12,9 km/h (3 Bft) 100,00 %
12.05.2023 16:30 19,4 C 20,6 C 15,6 C 73 % 1017,3 hPa 0,0 l/m 5 min 0 min 329 W/m 16,1 km/h (3 Bft) 100,00 %
12.05.2023 16:35 19,6 C 21,1 C 16,1 C 73 % 1017,4 hPa 0,0 l/m 5 min 0 min 339 W/m 19,3 km/h (3 Bft) 100,00 %
12.05.2023 16:40 19,8 C 20,6 C 16,1 C 72 % 1017,3 hPa 0,0 l/m 0 min 0 min 247 W/m 9,7 km/h (2 Bft) 100,00 %
12.05.2023 16:45 19,8 C 20,6 C 15,6 C 73 % 1017,4 hPa 0,0 l/m 0 min 0 min 183 W/m 9,7 km/h (2 Bft) 99,12 %
12.05.2023 16:50 19,8 C 19,4 C 15,6 C 71 % 1017,4 hPa 0,0 l/m 0 min 0 min 135 W/m 12,9 km/h (3 Bft) 100,00 %
12.05.2023 16:55 19,8 C 19,4 C 15,0 C 72 % 1017,5 hPa 0,0 l/m 0 min 0 min 114 W/m 9,7 km/h (2 Bft) 100,00 %
12.05.2023 17:00 19,7 C 18,9 C 15,0 C 72 % 1017,5 hPa 0,0 l/m 0 min 0 min 125 W/m 12,9 km/h (3 Bft) 100,00 %
12.05.2023 17:05 19,6 C 18,9 C 15,0 C 73 % 1017,6 hPa 0,0 l/m 0 min 0 min 127 W/m 16,1 km/h (3 Bft) 99,12 %
12.05.2023 17:10 19,6 C 19,4 C 15,0 C 73 % 1017,5 hPa 0,0 l/m 0 min 0 min 157 W/m 9,7 km/h (2 Bft) 97,37 %
12.05.2023 17:15 19,6 C 19,4 C 15,6 C 73 % 1017,6 hPa 0,0 l/m 0 min 0 min 163 W/m 12,9 km/h (3 Bft) 98,25 %
12.05.2023 17:20 19,6 C 19,4 C 15,6 C 74 % 1017,6 hPa 0,0 l/m 0 min 0 min 145 W/m 12,9 km/h (3 Bft) 100,00 %
12.05.2023 17:25 19,7 C 19,4 C 15,6 C 74 % 1017,6 hPa 0,0 l/m 0 min 0 min 140 W/m 9,7 km/h (2 Bft) 99,12 %
12.05.2023 17:30 19,7 C 19,4 C 15,6 C 73 % 1017,5 hPa 0,0 l/m 0 min 0 min 173 W/m 12,9 km/h (3 Bft) 99,12 %
12.05.2023 17:35 19,7 C 20,0 C 15,6 C 73 % 1017,6 hPa 0,0 l/m 0 min 0 min 216 W/m 9,7 km/h (2 Bft) 100,00 %
12.05.2023 17:40 19,8 C 20,6 C 15,6 C 72 % 1017,6 hPa 0,0 l/m 0 min 0 min 207 W/m 16,1 km/h (3 Bft) 99,12 %
12.05.2023 17:45 19,8 C 21,1 C 15,6 C 70 % 1017,6 hPa 0,0 l/m 0 min 0 min 213 W/m 9,7 km/h (2 Bft) 100,00 %
12.05.2023 17:50 20,0 C 22,2 C 16,7 C 69 % 1017,6 hPa 0,0 l/m 5 min 0 min 403 W/m 12,9 km/h (3 Bft) 100,00 %
12.05.2023 17:55 20,1 C 20,6 C 16,1 C 67 % 1017,6 hPa 0,0 l/m 0 min 0 min 102 W/m 19,3 km/h (3 Bft) 100,00 %
12.05.2023 18:00 19,9 C 19,4 C 15,6 C 66 % 1017,7 hPa 0,0 l/m 0 min 0 min 88 W/m 16,1 km/h (3 Bft) 100,00 %
12.05.2023 18:05 19,7 C 19,4 C 15,0 C 64 % 1017,8 hPa 0,0 l/m 0 min 0 min 108 W/m 29,0 km/h (5 Bft) 100,00 %
12.05.2023 18:10 19,5 C 18,9 C 15,0 C 62 % 1017,9 hPa 0,0 l/m 0 min 0 min 150 W/m 25,7 km/h (4 Bft) 100,00 %
12.05.2023 18:16 19,2 C 18,9 C 14,4 C 64 % 1017,8 hPa 0,0 l/m 0 min 0 min 100 W/m 9,7 km/h (2 Bft) 100,00 %
12.05.2023 18:21 18,9 C 18,3 C 13,9 C 65 % 1017,8 hPa 0,0 l/m 0 min 0 min 80 W/m 12,9 km/h (3 Bft) 98,51 %
12.05.2023 18:22 18,9 C 18,3 C 13,9 C 65 % 1017,8 hPa 0,0 l/m 0 min 0 min 48 W/m 6,4 km/h (2 Bft) 91,67 %
12.05.2023 18:24 18,8 C 17,8 C 13,9 C 66 % 1017,8 hPa 0,0 l/m 0 min 0 min 48 W/m 9,7 km/h (2 Bft) 100,00 %
12.05.2023 18:26 18,6 C 17,8 C 13,9 C 66 % 1017,8 hPa 0,0 l/m 0 min 0 min 49 W/m 12,9 km/h (3 Bft) 100,00 %
12.05.2023 18:28 18,5 C 17,2 C 13,9 C 66 % 1017,8 hPa 0,0 l/m 0 min 0 min 49 W/m 9,7 km/h (2 Bft) 100,00 %
12.05.2023 18:30 18,4 C 17,2 C 13,9 C 67 % 1017,8 hPa 0,0 l/m 0 min 0 min 51 W/m 12,9 km/h (3 Bft) 100,00 %
12.05.2023 18:32 18,3 C 17,2 C 13,3 C 67 % 1017,8 hPa 0,0 l/m 0 min 0 min 51 W/m 12,9 km/h (3 Bft) 97,87 %
12.05.2023 18:34 18,2 C 17,2 C 13,3 C 68 % 1017,8 hPa 0,0 l/m 0 min 0 min 53 W/m 6,4 km/h (2 Bft) 97,87 %
12.05.2023 18:36 18,1 C 17,2 C 13,3 C 68 % 1017,8 hPa 0,0 l/m 0 min 0 min 52 W/m 9,7 km/h (2 Bft) 100,00 %
12.05.2023 18:38 18,1 C 17,2 C 13,3 C 68 % 1017,8 hPa 0,0 l/m 0 min 0 min 47 W/m 6,4 km/h (2 Bft) 97,83 %
12.05.2023 18:40 18,0 C 17,2 C 13,3 C 69 % 1017,8 hPa 0,0 l/m 0 min 0 min 50 W/m 9,7 km/h (2 Bft) 100,00 %
12.05.2023 18:42 17,9 C 17,2 C 13,3 C 69 % 1017,8 hPa 0,0 l/m 0 min 0 min 48 W/m 9,7 km/h (2 Bft) 97,87 %
12.05.2023 18:44 17,9 C 17,2 C 13,3 C 69 % 1017,8 hPa 0,0 l/m 0 min 0 min 46 W/m 16,1 km/h (3 Bft) 97,87 %
12.05.2023 18:46 17,8 C 17,2 C 13,3 C 68 % 1017,8 hPa 0,0 l/m 0 min 0 min 51 W/m 6,4 km/h (2 Bft) 95,74 %
12.05.2023 18:48 17,8 C 17,2 C 13,3 C 69 % 1017,8 hPa 0,0 l/m 0 min 0 min 58 W/m 3,2 km/h (1 Bft) 97,87 %
12.05.2023 18:50 17,8 C 17,2 C 13,3 C 69 % 1017,8 hPa 0,0 l/m 0 min 0 min 62 W/m 3,2 km/h (1 Bft) 95,74 %
12.05.2023 18:52 17,8 C 17,2 C 13,3 C 69 % 1017,8 hPa 0,0 l/m 0 min 0 min 60 W/m 6,4 km/h (2 Bft) 97,83 %
12.05.2023 18:54 17,7 C 17,2 C 13,3 C 69 % 1017,8 hPa 0,0 l/m 0 min 0 min 57 W/m 6,4 km/h (2 Bft) 95,74 %
12.05.2023 18:56 17,7 C 17,2 C 13,3 C 69 % 1017,8 hPa 0,0 l/m 0 min 0 min 57 W/m 3,2 km/h (1 Bft) 95,74 %
12.05.2023 18:58 17,7 C 17,2 C 13,3 C 70 % 1017,9 hPa 0,0 l/m 0 min 0 min 59 W/m 6,4 km/h (2 Bft) 97,87 %
12.05.2023 19:00 17,7 C 17,2 C 13,3 C 70 % 1017,9 hPa 0,0 l/m 0 min 0 min 66 W/m 6,4 km/h (2 Bft) 97,87 %
12.05.2023 19:02 17,7 C 17,2 C 13,3 C 70 % 1017,9 hPa 0,0 l/m 0 min 0 min 75 W/m 6,4 km/h (2 Bft) 97,87 %
12.05.2023 19:04 17,7 C 17,2 C 13,3 C 70 % 1018,0 hPa 0,0 l/m 0 min 0 min 73 W/m 6,4 km/h (2 Bft) 95,83 %
12.05.2023 19:06 17,7 C 17,2 C 13,3 C 70 % 1018,0 hPa 0,0 l/m 0 min 0 min 68 W/m 16,1 km/h (3 Bft) 98,31 %
12.05.2023 19:08 17,7 C 17,2 C 13,3 C 71 % 1018,0 hPa 0,0 l/m 0 min 0 min 63 W/m 12,9 km/h (3 Bft) 94,29 %
12.05.2023 19:10 17,7 C 17,2 C 13,3 C 71 % 1018,0 hPa 0,0 l/m 0 min 0 min 60 W/m 9,7 km/h (2 Bft) 95,74 %
12.05.2023 19:12 17,7 C 17,2 C 13,3 C 70 % 1018,0 hPa 0,0 l/m 0 min 0 min 58 W/m 9,7 km/h (2 Bft) 93,62 %
12.05.2023 19:14 17,7 C 17,2 C 13,3 C 70 % 1018,0 hPa 0,0 l/m 0 min 0 min 58 W/m 12,9 km/h (3 Bft) 93,62 %
12.05.2023 19:16 17,7 C 17,2 C 13,3 C 70 % 1018,0 hPa 0,0 l/m 0 min 0 min 57 W/m 9,7 km/h (2 Bft) 90,24 %
12.05.2023 19:18 17,7 C 17,2 C 13,3 C 71 % 1018,0 hPa 0,0 l/m 0 min 0 min 58 W/m 9,7 km/h (2 Bft) 93,62 %
12.05.2023 19:20 17,7 C 17,2 C 13,3 C 71 % 1018,1 hPa 0,0 l/m 0 min 0 min 61 W/m 12,9 km/h (3 Bft) 93,62 %
12.05.2023 19:22 17,7 C 16,7 C 12,8 C 71 % 1018,0 hPa 0,0 l/m 0 min 0 min 64 W/m 9,7 km/h (2 Bft) 92,31 %
12.05.2023 19:24 17,6 C 16,7 C 12,8 C 71 % 1018,0 hPa 0,0 l/m 0 min 0 min 67 W/m 9,7 km/h (2 Bft) 91,49 %
12.05.2023 19:26 17,6 C 17,2 C 12,8 C 71 % 1018,0 hPa 0,0 l/m 0 min 0 min 78 W/m 6,4 km/h (2 Bft) 93,62 %
12.05.2023 19:28 17,6 C 17,2 C 13,3 C 71 % 1018,0 hPa 0,0 l/m 0 min 0 min 89 W/m 6,4 km/h (2 Bft) 91,49 %
12.05.2023 19:30 17,6 C 17,2 C 13,3 C 71 % 1018,0 hPa 0,0 l/m 0 min 0 min 87 W/m 6,4 km/h (2 Bft) 95,65 %
12.05.2023 19:32 17,6 C 17,2 C 13,3 C 72 % 1018,1 hPa 0,0 l/m 0 min 0 min 76 W/m 6,4 km/h (2 Bft) 95,74 %
12.05.2023 19:34 17,6 C 17,2 C 13,3 C 72 % 1018,1 hPa 0,0 l/m 0 min 0 min 63 W/m 6,4 km/h (2 Bft) 95,74 %
12.05.2023 19:36 17,6 C 17,2 C 13,3 C 72 % 1018,0 hPa 0,0 l/m 0 min 0 min 58 W/m 6,4 km/h (2 Bft) 95,74 %
12.05.2023 19:38 17,6 C 16,7 C 13,3 C 72 % 1018,0 hPa 0,0 l/m 0 min 0 min 62 W/m 12,9 km/h (3 Bft) 95,74 %
12.05.2023 19:40 17,6 C 16,7 C 12,8 C 72 % 1018,0 hPa 0,0 l/m 0 min 0 min 68 W/m 3,2 km/h (1 Bft) 97,87 %
12.05.2023 19:42 17,6 C 17,2 C 12,8 C 72 % 1018,1 hPa 0,0 l/m 0 min 0 min 73 W/m 6,4 km/h (2 Bft) 100,00 %
12.05.2023 19:44 17,6 C 17,2 C 12,8 C 73 % 1018,0 hPa 0,0 l/m 0 min 0 min 76 W/m 3,2 km/h (1 Bft) 95,74 %
12.05.2023 19:46 17,6 C 17,2 C 12,8 C 73 % 1018,1 hPa 0,0 l/m 0 min 0 min 71 W/m 3,2 km/h (1 Bft) 95,74 %
12.05.2023 19:48 17,6 C 17,2 C 12,8 C 73 % 1018,1 hPa 0,0 l/m 0 min 0 min 66 W/m 3,2 km/h (1 Bft) 97,87 %
12.05.2023 19:50 17,5 C 17,2 C 12,8 C 73 % 1018,0 hPa 0,0 l/m 0 min 0 min 60 W/m 6,4 km/h (2 Bft) 97,87 %
12.05.2023 19:52 17,5 C 17,2 C 12,8 C 73 % 1018,0 hPa 0,0 l/m 0 min 0 min 56 W/m 3,2 km/h (1 Bft) 95,74 %
12.05.2023 19:54 17,5 C 16,7 C 12,8 C 73 % 1018,0 hPa 0,0 l/m 0 min 0 min 54 W/m 3,2 km/h (1 Bft) 97,87 %
12.05.2023 19:56 17,5 C 16,7 C 12,8 C 73 % 1018,1 hPa 0,0 l/m 0 min 0 min 49 W/m 3,2 km/h (1 Bft) 97,83 %
12.05.2023 19:58 17,5 C 16,7 C 12,8 C 72 % 1018,1 hPa 0,0 l/m 0 min 0 min 45 W/m 0,0 km/h (0 Bft) 97,87 %
12.05.2023 20:00 17,5 C 16,7 C 12,8 C 72 % 1018,0 hPa 0,0 l/m 0 min 0 min 42 W/m 0,0 km/h (0 Bft) 100,00 %
12.05.2023 20:02 17,5 C 16,7 C 12,8 C 73 % 1018,0 hPa 0,0 l/m 0 min 0 min 40 W/m 0,0 km/h (0 Bft) 100,00 %
12.05.2023 20:04 17,5 C 16,7 C 12,8 C 73 % 1018,1 hPa 0,0 l/m 0 min 0 min 40 W/m 3,2 km/h (1 Bft) 97,96 %
12.05.2023 20:06 17,5 C 16,7 C 12,8 C 73 % 1018,1 hPa 0,0 l/m 0 min 0 min 39 W/m 0,0 km/h (0 Bft) 100,00 %
12.05.2023 20:08 17,4 C 16,7 C 12,8 C 74 % 1018,2 hPa 0,0 l/m 0 min 0 min 35 W/m 3,2 km/h (1 Bft) 100,00 %
12.05.2023 20:10 17,4 C 16,1 C 12,8 C 74 % 1018,2 hPa 0,0 l/m 0 min 0 min 29 W/m 3,2 km/h (1 Bft) 100,00 %
12.05.2023 20:12 17,4 C 16,1 C 12,2 C 74 % 1018,2 hPa 0,0 l/m 0 min 0 min 25 W/m 3,2 km/h (1 Bft) 100,00 %
12.05.2023 20:14 17,4 C 16,1 C 12,2 C 73 % 1018,2 hPa 0,0 l/m 0 min 0 min 24 W/m 3,2 km/h (1 Bft) 97,87 %
12.05.2023 20:16 17,3 C 16,1 C 12,2 C 73 % 1018,2 hPa 0,0 l/m 0 min 0 min 25 W/m 3,2 km/h (1 Bft) 100,00 %
12.05.2023 20:18 17,3 C 16,1 C 12,2 C 73 % 1018,2 hPa 0,0 l/m 0 min 0 min 24 W/m 3,2 km/h (1 Bft) 97,87 %
12.05.2023 20:20 17,3 C 16,1 C 12,2 C 73 % 1018,3 hPa 0,0 l/m 0 min 0 min 25 W/m 0,0 km/h (0 Bft) 95,74 %
12.05.2023 20:22 17,2 C 16,1 C 12,2 C 73 % 1018,3 hPa 0,0 l/m 0 min 0 min 25 W/m 0,0 km/h (0 Bft) 100,00 %
12.05.2023 20:24 17,2 C 16,1 C 12,2 C 73 % 1018,3 hPa 0,0 l/m 0 min 0 min 22 W/m 0,0 km/h (0 Bft) 97,87 %
12.05.2023 20:26 17,2 C 15,6 C 12,2 C 72 % 1018,4 hPa 0,0 l/m 0 min 0 min 19 W/m 3,2 km/h (1 Bft) 95,74 %
12.05.2023 20:28 17,1 C 15,6 C 12,2 C 72 % 1018,4 hPa 0,0 l/m 0 min 0 min 18 W/m 3,2 km/h (1 Bft) 97,87 %
12.05.2023 20:30 17,1 C 15,6 C 12,2 C 72 % 1018,5 hPa 0,0 l/m 0 min 0 min 18 W/m 3,2 km/h (1 Bft) 100,00 %
12.05.2023 20:32 17,1 C 15,6 C 12,2 C 74 % 1018,5 hPa 0,0 l/m 0 min 0 min 18 W/m 12,9 km/h (3 Bft) 97,87 %
12.05.2023 20:34 17,0 C 15,6 C 12,2 C 75 % 1018,6 hPa 0,0 l/m 0 min 0 min 18 W/m 12,9 km/h (3 Bft) 97,87 %
12.05.2023 20:36 16,9 C 15,6 C 12,2 C 75 % 1018,6 hPa 0,0 l/m 0 min 0 min 18 W/m 3,2 km/h (1 Bft) 100,00 %
12.05.2023 20:38 16,9 C 15,6 C 12,2 C 76 % 1018,6 hPa 0,0 l/m 0 min 0 min 16 W/m 0,0 km/h (0 Bft) 97,87 %
12.05.2023 20:40 16,9 C 15,6 C 11,7 C 76 % 1018,6 hPa 0,0 l/m 0 min 0 min 16 W/m 3,2 km/h (1 Bft) 100,00 %
12.05.2023 20:42 16,8 C 15,0 C 11,7 C 77 % 1018,6 hPa 0,0 l/m 0 min 0 min 16 W/m 0,0 km/h (0 Bft) 100,00 %
12.05.2023 20:44 16,8 C 15,0 C 11,7 C 77 % 1018,6 hPa 0,0 l/m 0 min 0 min 16 W/m 0,0 km/h (0 Bft) 100,00 %
12.05.2023 20:46 16,8 C 15,0 C 11,7 C 77 % 1018,6 hPa 0,0 l/m 0 min 0 min 18 W/m 0,0 km/h (0 Bft) 97,87 %
12.05.2023 20:48 16,8 C 15,0 C 11,7 C 78 % 1018,6 hPa 0,0 l/m 0 min 0 min 18 W/m 0,0 km/h (0 Bft) 100,00 %
12.05.2023 20:50 16,8 C 15,0 C 11,7 C 78 % 1018,5 hPa 0,0 l/m 0 min 0 min 18 W/m 0,0 km/h (0 Bft) 100,00 %
12.05.2023 20:52 16,7 C 15,0 C 11,1 C 78 % 1018,6 hPa 0,0 l/m 0 min 0 min 17 W/m 0,0 km/h (0 Bft) 97,87 %
12.05.2023 20:54 16,7 C 15,0 C 11,1 C 78 % 1018,5 hPa 0,0 l/m 0 min 0 min 16 W/m 0,0 km/h (0 Bft) 55,81 %
12.05.2023 20:56 16,7 C 15,0 C 11,1 C 79 % 1018,5 hPa 0,0 l/m 0 min 0 min 13 W/m 0,0 km/h (0 Bft) 100,00 %
12.05.2023 20:58 16,6 C 14,4 C 11,1 C 79 % 1018,5 hPa 0,0 l/m 0 min 0 min 12 W/m 0,0 km/h (0 Bft) 95,74 %
12.05.2023 21:00 16,5 C 14,4 C 11,1 C 79 % 1018,5 hPa 0,0 l/m 0 min 0 min 10 W/m 0,0 km/h (0 Bft) 100,00 %
12.05.2023 21:02 16,4 C 14,4 C 11,1 C 79 % 1018,5 hPa 0,0 l/m 0 min 0 min 8 W/m 0,0 km/h (0 Bft) 97,83 %
12.05.2023 21:04 16,4 C 14,4 C 11,1 C 79 % 1018,6 hPa 0,0 l/m 0 min 0 min 7 W/m 0,0 km/h (0 Bft) 95,92 %
12.05.2023 21:06 16,4 C 14,4 C 11,1 C 80 % 1018,6 hPa 0,0 l/m 0 min 0 min 6 W/m 0,0 km/h (0 Bft) 97,83 %
12.05.2023 21:08 16,3 C 14,4 C 11,1 C 80 % 1018,6 hPa 0,0 l/m 0 min 0 min 5 W/m 0,0 km/h (0 Bft) 95,74 %
12.05.2023 21:10 16,3 C 14,4 C 11,1 C 80 % 1018,6 hPa 0,0 l/m 0 min 0 min 4 W/m 0,0 km/h (0 Bft) 97,87 %
12.05.2023 21:12 16,2 C 14,4 C 11,1 C 80 % 1018,6 hPa 0,0 l/m 0 min 0 min 0 W/m 0,0 km/h (0 Bft) 95,74 %
12.05.2023 21:14 16,2 C 14,4 C 11,1 C 80 % 1018,7 hPa 0,0 l/m 0 min 0 min 0 W/m 0,0 km/h (0 Bft) 97,87 %
12.05.2023 21:16 16,1 C 14,4 C 11,1 C 80 % 1018,7 hPa 0,0 l/m 0 min 0 min 0 W/m 0,0 km/h (0 Bft) 97,87 %
12.05.2023 21:18 16,1 C 14,4 C 11,1 C 80 % 1018,7 hPa 0,0 l/m 0 min 0 min 0 W/m 0,0 km/h (0 Bft) 95,65 %
12.05.2023 21:20 15,9 C 14,4 C 11,1 C 80 % 1018,7 hPa 0,0 l/m 0 min 0 min 0 W/m 0,0 km/h (0 Bft) 97,87 %
12.05.2023 21:22 15,9 C 14,4 C 10,6 C 80 % 1018,8 hPa 0,0 l/m 0 min 0 min 0 W/m 6,4 km/h (2 Bft) 95,74 %
12.05.2023 21:24 15,8 C 14,4 C 11,1 C 80 % 1018,8 hPa 0,0 l/m 0 min 0 min 0 W/m 0,0 km/h (0 Bft) 97,87 %
12.05.2023 21:26 15,8 C 14,4 C 11,1 C 80 % 1018,8 hPa 0,0 l/m 0 min 0 min 0 W/m 0,0 km/h (0 Bft) 97,87 %
12.05.2023 21:28 15,8 C 14,4 C 11,1 C 80 % 1018,9 hPa 0,0 l/m 0 min 0 min 0 W/m 0,0 km/h (0 Bft) 95,74 %
12.05.2023 21:30 15,7 C 14,4 C 11,1 C 80 % 1018,9 hPa 0,0 l/m 0 min 0 min 0 W/m 0,0 km/h (0 Bft) 93,62 %
12.05.2023 21:32 15,7 C 14,4 C 11,1 C 80 % 1018,9 hPa 0,0 l/m 0 min 0 min 0 W/m 0,0 km/h (0 Bft) 97,83 %
12.05.2023 21:34 15,7 C 14,4 C 11,1 C 80 % 1018,9 hPa 0,0 l/m 0 min 0 min 0 W/m 0,0 km/h (0 Bft) 97,87 %
12.05.2023 21:36 15,6 C 14,4 C 11,1 C 80 % 1018,9 hPa 0,0 l/m 0 min 0 min 0 W/m 0,0 km/h (0 Bft) 97,87 %
12.05.2023 21:38 15,6 C 14,4 C 10,6 C 80 % 1018,9 hPa 0,0 l/m 0 min 0 min 0 W/m 0,0 km/h (0 Bft) 97,87 %
12.05.2023 21:40 15,6 C 14,4 C 10,6 C 80 % 1019,0 hPa 0,0 l/m 0 min 0 min 0 W/m 0,0 km/h (0 Bft) 97,87 %
12.05.2023 21:42 15,5 C 14,4 C 10,6 C 80 % 1018,9 hPa 0,0 l/m 0 min 0 min 0 W/m 0,0 km/h (0 Bft) 97,87 %
12.05.2023 21:44 15,5 C 13,9 C 10,6 C 80 % 1019,0 hPa 0,0 l/m 0 min 0 min 0 W/m 0,0 km/h (0 Bft) 97,83 %
12.05.2023 21:46 15,5 C 13,9 C 10,6 C 80 % 1019,0 hPa 0,0 l/m 0 min 0 min 0 W/m 0,0 km/h (0 Bft) 95,74 %
12.05.2023 21:48 15,4 C 13,9 C 10,6 C 81 % 1019,0 hPa 0,0 l/m 0 min 0 min 0 W/m 0,0 km/h (0 Bft) 97,87 %
12.05.2023 21:50 15,4 C 13,9 C 10,6 C 81 % 1019,1 hPa 0,0 l/m 0 min 0 min 0 W/m 0,0 km/h (0 Bft) 97,87 %
12.05.2023 21:52 15,4 C 13,9 C 10,6 C 81 % 1019,0 hPa 0,0 l/m 0 min 0 min 0 W/m 0,0 km/h (0 Bft) 97,87 %
12.05.2023 21:54 15,4 C 13,3 C 10,0 C 82 % 1019,1 hPa 0,0 l/m 0 min 0 min 0 W/m 0,0 km/h (0 Bft) 97,87 %
12.05.2023 21:56 15,4 C 13,3 C 10,0 C 82 % 1019,1 hPa 0,0 l/m 0 min 0 min 0 W/m 0,0 km/h (0 Bft) 97,87 %
12.05.2023 21:58 15,3 C 13,3 C 10,0 C 82 % 1019,1 hPa 0,0 l/m 0 min 0 min 0 W/m 0,0 km/h (0 Bft) 95,65 %
12.05.2023 22:00 15,3 C 13,3 C 10,0 C 82 % 1019,1 hPa 0,0 l/m 0 min 0 min 0 W/m 0,0 km/h (0 Bft) 97,87 %
12.05.2023 22:02 15,3 C 13,3 C 10,0 C 82 % 1019,1 hPa 0,0 l/m 0 min 0 min 0 W/m 0,0 km/h (0 Bft) 95,74 %
12.05.2023 22:04 15,2 C 13,3 C 10,0 C 83 % 1019,1 hPa 0,0 l/m 0 min 0 min 0 W/m 0,0 km/h (0 Bft) 100,00 %
12.05.2023 22:06 15,2 C 13,3 C 10,0 C 83 % 1019,1 hPa 0,0 l/m 0 min 0 min 0 W/m 0,0 km/h (0 Bft) 95,74 %
12.05.2023 22:08 15,2 C 12,8 C 9,4 C 83 % 1019,1 hPa 0,0 l/m 0 min 0 min 0 W/m 0,0 km/h (0 Bft) 95,74 %
12.05.2023 22:10 15,1 C 12,8 C 9,4 C 83 % 1019,2 hPa 0,0 l/m 0 min 0 min 0 W/m 0,0 km/h (0 Bft) 100,00 %
12.05.2023 22:12 15,1 C 12,8 C 9,4 C 83 % 1019,2 hPa 0,0 l/m 0 min 0 min 0 W/m 0,0 km/h (0 Bft) 97,83 %
12.05.2023 22:14 15,1 C 12,8 C 9,4 C 84 % 1019,2 hPa 0,0 l/m 0 min 0 min 0 W/m 0,0 km/h (0 Bft) 97,87 %
12.05.2023 22:16 15,0 C 12,8 C 9,4 C 84 % 1019,2 hPa 0,0 l/m 0 min 0 min 0 W/m 0,0 km/h (0 Bft) 97,87 %
12.05.2023 22:18 14,9 C 12,8 C 9,4 C 84 % 1019,2 hPa 0,0 l/m 0 min 0 min 0 W/m 0,0 km/h (0 Bft) 97,87 %
12.05.2023 22:20 14,9 C 12,8 C 9,4 C 84 % 1019,2 hPa 0,0 l/m 0 min 0 min 0 W/m 0,0 km/h (0 Bft) 97,37 %
12.05.2023 22:22 14,9 C 12,8 C 9,4 C 85 % 1019,2 hPa 0,0 l/m 0 min 0 min 0 W/m 0,0 km/h (0 Bft) 95,92 %
12.05.2023 22:24 14,8 C 12,8 C 9,4 C 85 % 1019,2 hPa 0,0 l/m 0 min 0 min 0 W/m 0,0 km/h (0 Bft) 97,87 %
12.05.2023 22:26 14,8 C 12,8 C 9,4 C 85 % 1019,2 hPa 0,0 l/m 0 min 0 min 0 W/m 0,0 km/h (0 Bft) 97,87 %
12.05.2023 22:28 14,7 C 12,8 C 9,4 C 85 % 1019,3 hPa 0,0 l/m 0 min 0 min 0 W/m 0,0 km/h (0 Bft) 97,87 %
12.05.2023 22:30 14,7 C 12,8 C 9,4 C 85 % 1019,3 hPa 0,0 l/m 0 min 0 min 0 W/m 0,0 km/h (0 Bft) 97,87 %
12.05.2023 22:32 14,7 C 12,8 C 9,4 C 86 % 1019,3 hPa 0,0 l/m 0 min 0 min 0 W/m 0,0 km/h (0 Bft) 97,87 %
12.05.2023 22:34 14,6 C 12,8 C 9,4 C 86 % 1019,3 hPa 0,0 l/m 0 min 0 min 0 W/m 0,0 km/h (0 Bft) 97,87 %
12.05.2023 22:36 14,6 C 13,3 C 9,4 C 86 % 1019,4 hPa 0,0 l/m 0 min 0 min 0 W/m 0,0 km/h (0 Bft) 97,83 %
12.05.2023 22:38 14,6 C 13,3 C 9,4 C 86 % 1019,3 hPa 0,0 l/m 0 min 0 min 0 W/m 6,4 km/h (2 Bft) 95,74 %
12.05.2023 22:40 14,6 C 13,3 C 9,4 C 86 % 1019,3 hPa 0,0 l/m 0 min 0 min 0 W/m 3,2 km/h (1 Bft) 93,62 %
12.05.2023 22:42 14,5 C 13,3 C 9,4 C 86 % 1019,4 hPa 0,0 l/m 0 min 0 min 0 W/m 3,2 km/h (1 Bft) 97,87 %
12.05.2023 22:44 14,4 C 13,9 C 10,0 C 86 % 1019,4 hPa 0,0 l/m 0 min 0 min 0 W/m 3,2 km/h (1 Bft) 97,87 %
12.05.2023 22:46 14,4 C 13,9 C 10,0 C 86 % 1019,5 hPa 0,0 l/m 0 min 0 min 0 W/m 3,2 km/h (1 Bft) 95,74 %
12.05.2023 22:48 14,4 C 13,9 C 10,0 C 85 % 1019,5 hPa 0,0 l/m 0 min 0 min 0 W/m 3,2 km/h (1 Bft) 95,65 %
12.05.2023 22:50 14,4 C 13,9 C 10,0 C 85 % 1019,5 hPa 0,0 l/m 0 min 0 min 0 W/m 6,4 km/h (2 Bft) 95,74 %
12.05.2023 22:54 14,4 C 13,3 C 10,0 C 85 % 1019,5 hPa 0,0 l/m 0 min 0 min 0 W/m 3,2 km/h (1 Bft) 97,01 %
12.05.2023 22:56 14,3 C 13,3 C 10,0 C 85 % 1019,6 hPa 0,0 l/m 0 min 0 min 0 W/m 3,2 km/h (1 Bft) 97,06 %
12.05.2023 22:58 14,3 C 13,3 C 10,0 C 85 % 1019,5 hPa 0,0 l/m 0 min 0 min 0 W/m 0,0 km/h (0 Bft) 95,74 %
12.05.2023 23:00 14,3 C 13,3 C 10,0 C 85 % 1019,5 hPa 0,0 l/m 0 min 0 min 0 W/m 0,0 km/h (0 Bft) 95,74 %
12.05.2023 23:02 14,3 C 13,3 C 10,0 C 85 % 1019,6 hPa 0,0 l/m 0 min 0 min 0 W/m 0,0 km/h (0 Bft) 100,00 %
12.05.2023 23:04 14,3 C 13,3 C 10,0 C 85 % 1019,6 hPa 0,0 l/m 0 min 0 min 0 W/m 3,2 km/h (1 Bft) 95,83 %
12.05.2023 23:06 14,3 C 13,3 C 10,0 C 86 % 1019,6 hPa 0,0 l/m 0 min 0 min 0 W/m 3,2 km/h (1 Bft) 93,62 %
12.05.2023 23:08 14,3 C 13,3 C 10,0 C 86 % 1019,6 hPa 0,0 l/m 0 min 0 min 0 W/m 3,2 km/h (1 Bft) 97,83 %
12.05.2023 23:10 14,3 C 13,3 C 10,0 C 86 % 1019,6 hPa 0,0 l/m 0 min 0 min 0 W/m 3,2 km/h (1 Bft) 95,74 %
12.05.2023 23:12 14,3 C 13,3 C 10,0 C 86 % 1019,6 hPa 0,0 l/m 0 min 0 min 0 W/m 0,0 km/h (0 Bft) 97,87 %
12.05.2023 23:14 14,3 C 13,3 C 9,4 C 86 % 1019,6 hPa 0,0 l/m 0 min 0 min 0 W/m 0,0 km/h (0 Bft) 95,83 %
12.05.2023 23:16 14,3 C 13,3 C 9,4 C 86 % 1019,7 hPa 0,0 l/m 0 min 0 min 0 W/m 0,0 km/h (0 Bft) 100,00 %
12.05.2023 23:18 14,3 C 12,8 C 9,4 C 86 % 1019,7 hPa 0,0 l/m 0 min 0 min 0 W/m 3,2 km/h (1 Bft) 100,00 %
12.05.2023 23:20 14,3 C 12,8 C 9,4 C 86 % 1019,7 hPa 0,0 l/m 0 min 0 min 0 W/m 3,2 km/h (1 Bft) 100,00 %
12.05.2023 23:22 14,3 C 12,8 C 9,4 C 86 % 1019,7 hPa 0,0 l/m 0 min 0 min 0 W/m 3,2 km/h (1 Bft) 97,83 %
12.05.2023 23:24 14,3 C 12,8 C 9,4 C 86 % 1019,8 hPa 0,0 l/m 0 min 0 min 0 W/m 0,0 km/h (0 Bft) 100,00 %
12.05.2023 23:26 14,3 C 12,8 C 9,4 C 86 % 1019,8 hPa 0,0 l/m 0 min 0 min 0 W/m 0,0 km/h (0 Bft) 100,00 %
12.05.2023 23:28 14,3 C 12,8 C 9,4 C 86 % 1019,7 hPa 0,0 l/m 0 min 0 min 0 W/m 0,0 km/h (0 Bft) 97,92 %
12.05.2023 23:30 14,3 C 12,8 C 9,4 C 86 % 1019,8 hPa 0,0 l/m 0 min 0 min 0 W/m 0,0 km/h (0 Bft) 100,00 %
12.05.2023 23:32 14,3 C 12,2 C 8,9 C 86 % 1019,8 hPa 0,0 l/m 0 min 0 min 0 W/m 0,0 km/h (0 Bft) 97,87 %
12.05.2023 23:34 14,2 C 12,2 C 8,9 C 87 % 1019,8 hPa 0,0 l/m 0 min 0 min 0 W/m 0,0 km/h (0 Bft) 100,00 %
12.05.2023 23:36 14,2 C 12,2 C 8,9 C 86 % 1019,8 hPa 0,0 l/m 0 min 0 min 0 W/m 3,2 km/h (1 Bft) 97,87 %
12.05.2023 23:38 14,1 C 12,2 C 8,9 C 87 % 1019,8 hPa 0,0 l/m 0 min 0 min 0 W/m 0,0 km/h (0 Bft) 97,87 %
12.05.2023 23:40 14,1 C 12,2 C 8,9 C 87 % 1019,8 hPa 0,0 l/m 0 min 0 min 0 W/m 0,0 km/h (0 Bft) 97,87 %
12.05.2023 23:42 14,1 C 12,2 C 8,9 C 87 % 1019,8 hPa 0,0 l/m 0 min 0 min 0 W/m 0,0 km/h (0 Bft) 100,00 %
12.05.2023 23:44 14,0 C 12,2 C 8,9 C 87 % 1019,8 hPa 0,0 l/m 0 min 0 min 0 W/m 0,0 km/h (0 Bft) 97,87 %
12.05.2023 23:46 13,9 C 12,2 C 8,9 C 87 % 1019,8 hPa 0,0 l/m 0 min 0 min 0 W/m 0,0 km/h (0 Bft) 95,74 %
12.05.2023 23:48 13,9 C 12,2 C 8,3 C 87 % 1019,7 hPa 0,0 l/m 0 min 0 min 0 W/m 3,2 km/h (1 Bft) 97,83 %
12.05.2023 23:50 13,8 C 12,2 C 8,3 C 87 % 1019,8 hPa 0,0 l/m 0 min 0 min 0 W/m 0,0 km/h (0 Bft) 96,00 %
12.05.2023 23:52 13,8 C 12,2 C 8,3 C 87 % 1019,8 hPa 0,0 l/m 0 min 0 min 0 W/m 0,0 km/h (0 Bft) 95,74 %
12.05.2023 23:54 13,7 C 11,7 C 8,3 C 87 % 1019,7 hPa 0,0 l/m 0 min 0 min 0 W/m 0,0 km/h (0 Bft) 95,74 %
12.05.2023 23:56 13,7 C 11,7 C 8,3 C 88 % 1019,7 hPa 0,0 l/m 0 min 0 min 0 W/m 0,0 km/h (0 Bft) 95,74 %
12.05.2023 23:58 13,7 C 11,7 C 8,3 C 88 % 1019,7 hPa 0,0 l/m 0 min 0 min 0 W/m 0,0 km/h (0 Bft) 97,87 %
_ Min-Zeit 04:16 04:02 03:40 18:10 04:28 - - - - 00:22 20:54
Minimum _ 12,2 C 11,1 C 8,3 C 62 % 1013,6 hPa - - - - 0,0 km/h (0 Bft) 55,81 %
_ Max-Zeit 17:52 12:18 12:20 08:10 23:24 03:00 08:10 00:09 12:20 18:04 00:36
Maximum _ 20,1 C 25,6 C 20,0 C 100 % 1019,8 hPa 2,0 l/m 5 min 5 min 1082 W/m 29,0 km/h
SW (5 Bft)
100,00 %
Durchschnitt _ 15,6 C 15,9 C 11,8 C 87 % 1016,3 hPa #10,8 l/m #10:07 h #8:11 h 287 W/m 9,3 km/h (2 Bft) 98,14 %
© 2023 W. Hausmann